AA5875 / N908FJ 7700 Squawk Report (24th of August, 2019)

Aircraft CRJ9 Reg No. N908FJ Age N/A
Model Regional-Jet Jet engines 2 First flight 10-03
Registered 08-04-15 Rollout 09-03 Delivered 17-10-03
Construction No. 15008 Line No. N/A Series 900
ADSHEX AC8D6A Airline name American Eagle Airlines Owner Mesa Airlines
Airfield based Phoenix-Sky Harbor~AZ~N First tracked 2017-07-14 00:07:00

Flight history for N908FJ

Route Flight No Date Playback
Dallas Fort Worth (DFW) - Lubbock Preston Smith Intl (LBB) - Dallas Fort Worth (DFW) AA5967 2019-09-21 20:14:00
Dallas Fort Worth (DFW) - William P Hobby (HOU) - Dallas Fort Worth (DFW) AA5792 2019-09-21 19:39:00
Rapid City Regional Airport (RAP) - Dallas Fort Worth (DFW) AA5763 2019-09-21 14:45:00
Dallas Fort Worth (DFW) - William P Hobby (HOU) - Dallas Fort Worth (DFW) AA5977 2019-09-21 04:13:00
Wichita Dwight D. Eisenhower (ICT) - Dallas Fort Worth (DFW) AA5907 2019-09-20 22:03:00
Huntsville International Airport-Carl T Jones Field (HSV) - Dallas Fort Worth (DFW) AA5951 2019-09-20 16:07:00
Dallas Fort Worth (DFW) - Huntsville International Airport-Carl T Jones Field (HSV) AA5976 2019-09-20 12:51:00
Northwest Florida Beaches (ECP) - Dallas Fort Worth (DFW) AA5856 2019-09-19 23:56:00
Dallas Fort Worth (DFW) - Northwest Florida Beaches (ECP) AA5969 2019-09-19 19:38:00
Dallas Fort Worth (DFW) - Wichita Dwight D. Eisenhower (ICT) - Dallas Fort Worth (DFW) AA5848 2019-09-19 18:04:00
Mobile Rgnl (MOB) - Dallas Fort Worth (DFW) AA5909 2019-09-19 13:54:00
Dallas Fort Worth (DFW) - Mobile Rgnl (MOB) AA5841 2019-09-19 04:45:00
Eglin Afb (VPS) - Dallas Fort Worth (DFW) AA5906 2019-09-19 03:25:00
Dallas Fort Worth (DFW) - Huntsville International Airport-Carl T Jones Field (HSV) - Dallas Fort Worth (DFW) AA5942 2019-09-18 21:58:00
Rapid City Regional Airport (RAP) - Dallas Fort Worth (DFW) AA5763 2019-09-18 15:44:00
Dallas Fort Worth (DFW) - Rapid City Regional Airport (RAP) AA5968 2019-09-18 01:21:00
Dallas Fort Worth (DFW) - Midland Intl (MAF) - Dallas Fort Worth (DFW) AA5943 2019-09-17 22:14:00
Dallas Fort Worth (DFW) - Mc Allen Miller Intl (MFE) - Dallas Fort Worth (DFW) AA5882 2019-09-17 17:42:00
Mobile Rgnl (MOB) - Dallas Fort Worth (DFW) AA5909 2019-09-17 14:10:00
Dallas Fort Worth (DFW) - Mobile Rgnl (MOB) AA5841 2019-09-17 04:42:00
Time Lat Lon Altitude Heading Speed Vertical Rate
2019-08-24 16:45:31 GMT 32.913574 -97.050751 600 181 129 -64
2019-08-24 16:45:28 GMT 32.915970 -97.050758 675 181 135 -704
2019-08-24 16:45:20 GMT 32.921089 -97.050697 750 181 137 -896
2019-08-24 16:45:16 GMT 32.922722 -97.050644 775 181 138 -640
2019-08-24 16:45:09 GMT 32.927536 -97.050644 850 180 136 -832
2019-08-24 16:45:06 GMT 32.929749 -97.050591 900 180 136 -448
2019-08-24 16:44:58 GMT 32.934448 -97.050583 975 181 135 -704
2019-08-24 16:44:55 GMT 32.936600 -97.050529 1,025 181 135 -1088
2019-08-24 16:44:48 GMT 32.940922 -97.050476 1,100 180 134 -768
2019-08-24 16:44:44 GMT 32.943901 -97.050476 1,150 181 134 -896
2019-08-24 16:44:37 GMT 32.947392 -97.050476 1,225 181 138 -512
2019-08-24 16:44:32 GMT 32.950699 -97.050369 1,275 181 137 -640
2019-08-24 16:44:25 GMT 32.955505 -97.050369 1,375 180 135 -960
2019-08-24 16:44:21 GMT 32.957611 -97.050369 1,425 180 135 -1024
2019-08-24 16:44:16 GMT 32.961170 -97.050476 1,475 176 135 -832
2019-08-24 16:44:11 GMT 32.964199 -97.050812 1,550 168 135 -960
2019-08-24 16:44:04 GMT 32.968479 -97.052048 1,650 162 140 -640
2019-08-24 16:44:00 GMT 32.970856 -97.052887 1,675 163 141 -256
2019-08-24 16:43:56 GMT 32.973953 -97.053825 1,725 169 141 -512
2019-08-24 16:43:52 GMT 32.976768 -97.054230 1,750 181 138 -640
2019-08-24 16:43:49 GMT 32.978119 -97.054214 1,775 181 138 -704
2019-08-24 16:43:44 GMT 32.981049 -97.054214 1,825 179 140 -960
2019-08-24 16:43:41 GMT 32.983284 -97.054176 1,850 181 137 -512
2019-08-24 16:43:37 GMT 32.985287 -97.054115 1,875 181 138 -832
2019-08-24 16:43:33 GMT 32.988403 -97.054115 1,950 179 141 -1088
2019-08-24 16:43:26 GMT 32.992584 -97.054100 2,075 180 146 -1152
2019-08-24 16:43:23 GMT 32.997940 -97.054153 2,125 179 156 -320
2019-08-24 16:43:16 GMT 33.000137 -97.054230 2,225 178 166 -1472
2019-08-24 16:43:12 GMT 33.003117 -97.054291 2,325 178 172 -1024
2019-08-24 16:43:05 GMT 33.008747 -97.054512 2,400 178 180 -960
2019-08-24 16:43:02 GMT 33.011913 -97.054680 2,450 178 185 -64
2019-08-24 16:42:59 GMT 33.014149 -97.054794 2,425 177 190 128
2019-08-24 16:42:56 GMT 33.017315 -97.055130 2,450 168 196 -640
2019-08-24 16:42:53 GMT 33.018677 -97.055367 2,450 165 198 -640
2019-08-24 16:42:49 GMT 33.023071 -97.057121 2,475 154 203 64
2019-08-24 16:42:44 GMT 33.027740 -97.059761 2,475 153 214 704
2019-08-24 16:42:41 GMT 33.030212 -97.061241 2,450 153 221 -128
2019-08-24 16:42:38 GMT 33.032227 -97.062393 2,450 153 222 -256
2019-08-24 16:42:32 GMT 33.037937 -97.065720 2,475 153 230 128
2019-08-24 16:42:29 GMT 33.040405 -97.067238 2,475 153 233 0
2019-08-24 16:42:20 GMT 33.050228 -97.073067 2,475 152 245 -192
2019-08-24 16:42:09 GMT 33.061066 -97.081070 2,475 138 252 -128
2019-08-24 16:42:04 GMT 33.065735 -97.086128 2,475 133 251 0
2019-08-24 16:41:59 GMT 33.069733 -97.091286 2,500 132 250 -64
2019-08-24 16:41:48 GMT 33.078018 -97.102104 2,500 132 249 -320
2019-08-24 16:41:41 GMT 33.082764 -97.108376 2,550 132 252 -704
2019-08-24 16:41:36 GMT 33.086380 -97.113098 2,625 132 254 -1472
2019-08-24 16:41:28 GMT 33.093891 -97.123009 2,925 132 256 -1664
2019-08-24 16:41:20 GMT 33.099339 -97.130180 3,075 132 258 -1536
2019-08-24 16:41:15 GMT 33.104225 -97.136520 3,200 132 262 -1664
2019-08-24 16:41:10 GMT 33.107811 -97.141228 3,325 132 262 -1664
2019-08-24 16:41:05 GMT 33.111721 -97.146385 3,500 132 261 -2560
2019-08-24 16:41:00 GMT 33.116501 -97.152702 3,725 132 259 -2624
2019-08-24 16:40:54 GMT 33.120667 -97.158195 3,900 131 257 -2304
2019-08-24 16:40:48 GMT 33.125084 -97.163986 4,100 132 256 -1984
2019-08-24 16:40:43 GMT 33.129044 -97.169128 4,225 132 258 -1408
2019-08-24 16:40:38 GMT 33.133648 -97.175079 4,350 132 260 -1472
2019-08-24 16:40:33 GMT 33.137512 -97.180061 4,500 132 260 -2048
2019-08-24 16:40:28 GMT 33.142448 -97.186569 4,725 132 258 -2560
2019-08-24 16:40:22 GMT 33.146347 -97.191704 4,900 132 256 -1856
2019-08-24 16:40:17 GMT 33.150593 -97.197281 4,975 132 259 -192
2019-08-24 16:40:11 GMT 33.155777 -97.204010 4,975 132 264 0
2019-08-24 16:40:04 GMT 33.162743 -97.213196 4,975 132 264 -64
2019-08-24 16:40:00 GMT 33.164474 -97.215492 4,975 132 264 -64
2019-08-24 16:39:52 GMT 33.171707 -97.224991 4,975 132 264 0
2019-08-24 16:39:49 GMT 33.173450 -97.227264 4,975 132 264 0
2019-08-24 16:39:45 GMT 33.177795 -97.233017 4,975 132 264 0
2019-08-24 16:39:40 GMT 33.180992 -97.237244 4,975 132 264 0
2019-08-24 16:39:30 GMT 33.190071 -97.249184 4,975 132 265 0
2019-08-24 16:39:19 GMT 33.199100 -97.261124 4,975 131 265 -64
2019-08-24 16:39:15 GMT 33.202011 -97.264931 4,975 131 265 -64
2019-08-24 16:39:08 GMT 33.207664 -97.272446 5,000 132 265 -64
2019-08-24 16:39:05 GMT 33.210205 -97.275803 5,000 132 266 0
2019-08-24 16:38:53 GMT 33.223400 -97.293297 5,125 132 270 -1344
2019-08-24 16:38:45 GMT 33.225914 -97.296600 5,200 131 269 -1408
2019-08-24 16:38:35 GMT 33.234715 -97.308434 5,425 131 269 -1280
2019-08-24 16:38:30 GMT 33.238903 -97.313980 5,550 131 269 -1216
2019-08-24 16:38:25 GMT 33.243759 -97.320518 5,650 129 268 -1344
2019-08-24 16:38:16 GMT 33.249702 -97.330574 5,825 118 268 -1536
2019-08-24 16:38:13 GMT 33.250912 -97.333153 5,875 115 267 -1472
2019-08-24 16:38:06 GMT 33.255203 -97.344307 6,075 113 268 -1344
2019-08-24 16:38:02 GMT 33.256805 -97.348587 6,125 113 268 -1344
2019-08-24 16:37:58 GMT 33.259384 -97.355515 6,250 113 268 -1408
2019-08-24 16:37:55 GMT 33.260784 -97.359268 6,300 113 268 -1408
2019-08-24 16:37:52 GMT 33.261749 -97.361832 6,350 113 268 -1408
2019-08-24 16:37:44 GMT 33.266190 -97.373695 6,550 114 267 -1344
2019-08-24 16:37:41 GMT 33.267159 -97.376251 6,575 114 267 -1344
2019-08-24 16:37:31 GMT 33.272423 -97.390327 6,775 113 268 -1344
2019-08-24 16:37:20 GMT 33.278427 -97.406242 7,050 113 268 -1408
2019-08-24 16:37:12 GMT 33.283951 -97.421043 7,300 113 269 -1344
2019-08-24 16:37:01 GMT 33.289124 -97.434998 7,525 113 272 -1344
2019-08-24 16:36:50 GMT 33.293839 -97.447685 7,725 114 274 -1408
2019-08-24 16:36:37 GMT 33.300259 -97.464760 7,950 114 277 -1408
2019-08-24 16:36:29 GMT 33.306080 -97.480232 8,175 114 280 -1408
2019-08-24 16:36:17 GMT 33.310822 -97.492844 8,425 114 283 -1344
2019-08-24 16:36:14 GMT 33.312130 -97.496429 8,475 114 284 -1344
2019-08-24 16:36:05 GMT 33.317825 -97.511574 8,700 113 287 -1408
2019-08-24 16:35:56 GMT 33.322556 -97.524231 8,875 114 290 -1408
2019-08-24 16:35:53 GMT 33.323627 -97.527145 8,925 114 290 -1408
2019-08-24 16:35:45 GMT 33.329773 -97.543106 9,175 114 293 -1344
2019-08-24 16:35:35 GMT 33.334007 -97.554222 9,300 113 295 -1408
2019-08-24 16:35:32 GMT 33.335770 -97.558815 9,450 119 298 -1536
2019-08-24 16:35:25 GMT 33.340481 -97.569801 9,550 123 298 -1472
2019-08-24 16:35:18 GMT 33.346298 -97.579689 9,725 127 299 -1408
2019-08-24 16:35:14 GMT 33.348953 -97.583862 9,800 127 298 -1408
2019-08-24 16:35:10 GMT 33.352982 -97.590179 9,900 127 299 -1408
2019-08-24 16:35:03 GMT 33.357834 -97.597816 10,025 126 298 -1408
2019-08-24 16:35:00 GMT 33.360916 -97.602654 10,100 127 298 -1280
2019-08-24 16:34:53 GMT 33.367016 -97.611565 10,250 133 297 -1408
2019-08-24 16:34:48 GMT 33.378372 -97.623505 10,350 139 297 -1344
2019-08-24 16:34:41 GMT 33.378372 -97.623505 10,475 145 296 -1344
2019-08-24 16:34:31 GMT 33.390755 -97.631798 10,700 157 295 -1280
2019-08-24 16:34:26 GMT 33.397133 -97.634712 10,800 163 296 -1344
2019-08-24 16:34:21 GMT 33.404709 -97.637039 10,900 169 298 -1216
2019-08-24 16:34:16 GMT 33.411850 -97.638245 11,000 184 311 -1472
2019-08-24 16:34:10 GMT 33.420177 -97.638359 11,125 184 307 -1280
2019-08-24 16:34:05 GMT 33.425903 -97.637962 11,225 184 312 -1472
2019-08-24 16:33:58 GMT 33.436798 -97.637093 11,350 184 318 -1344
2019-08-24 16:33:53 GMT 33.444855 -97.636429 11,525 184 324 -1600
2019-08-24 16:33:50 GMT 33.449829 -97.636063 11,600 184 329 -1600
2019-08-24 16:33:47 GMT 33.453644 -97.635719 11,675 184 331 -1664
2019-08-24 16:33:43 GMT 33.459656 -97.635277 11,775 185 337 -1792
2019-08-24 16:33:40 GMT 33.463379 -97.634941 11,850 185 337 -1792
2019-08-24 16:33:37 GMT 33.470314 -97.634377 11,975 184 342 -1728
2019-08-24 16:33:33 GMT 33.475388 -97.633987 12,050 184 348 -1856
2019-08-24 16:33:30 GMT 33.479252 -97.633652 12,125 184 350 -2240
2019-08-24 16:33:26 GMT 33.487244 -97.633026 12,300 184 356 -1984
2019-08-24 16:33:22 GMT 33.492661 -97.632584 12,400 184 357 -1984
2019-08-24 16:33:18 GMT 33.500622 -97.631966 12,550 184 361 -1984
2019-08-24 16:33:15 GMT 33.505695 -97.631516 12,650 184 364 -1984
2019-08-24 16:33:11 GMT 33.512924 -97.630936 12,850 184 366 -1984
2019-08-24 16:33:06 GMT 33.518867 -97.630455 12,900 184 366 -1984
2019-08-24 16:33:03 GMT 33.523941 -97.630058 13,000 184 367 -1984
2019-08-24 16:32:58 GMT 33.532654 -97.629349 13,150 184 369 -2048
2019-08-24 16:32:55 GMT 33.537582 -97.628998 13,250 184 370 -2048
2019-08-24 16:32:50 GMT 33.547394 -97.628212 13,425 184 372 -2048
2019-08-24 16:32:45 GMT 33.555679 -97.627541 13,600 184 374 -2048
2019-08-24 16:32:42 GMT 33.562069 -97.626968 13,700 184 375 -2048
2019-08-24 16:32:38 GMT 33.568863 -97.626419 13,925 185 377 -2176
2019-08-24 16:32:35 GMT 33.574448 -97.625969 13,950 185 377 -2176
2019-08-24 16:32:27 GMT 33.587254 -97.624855 14,225 184 380 -2176
2019-08-24 16:32:23 GMT 33.593033 -97.624397 14,325 185 381 -2240
2019-08-24 16:32:17 GMT 33.604752 -97.623444 14,525 184 384 -2176
2019-08-24 16:32:13 GMT 33.612019 -97.622849 14,700 184 385 -2112
2019-08-24 16:32:09 GMT 33.621002 -97.622108 14,875 184 387 -2240
2019-08-24 16:32:05 GMT 33.626907 -97.621597 15,000 184 388 -2240
2019-08-24 16:32:02 GMT 33.631943 -97.621208 15,100 184 389 -2240
2019-08-24 16:31:57 GMT 33.641907 -97.620338 15,300 185 392 -2240
2019-08-24 16:31:54 GMT 33.646454 -97.619972 15,375 185 392 -2240
2019-08-24 16:31:51 GMT 33.651356 -97.619537 15,475 185 394 -2112
2019-08-24 16:31:45 GMT 33.663784 -97.618507 15,700 185 396 -2176
2019-08-24 16:31:40 GMT 33.671310 -97.617897 15,850 185 398 -2240
2019-08-24 16:31:36 GMT 33.680878 -97.617058 16,050 185 399 -2176
2019-08-24 16:31:30 GMT 33.691437 -97.616219 16,225 184 400 -2240
2019-08-24 16:31:23 GMT 33.704426 -97.615128 16,400 185 400 -2240
2019-08-24 16:31:19 GMT 33.711826 -97.614494 16,625 184 401 -2240
2019-08-24 16:31:14 GMT 33.721512 -97.613693 18,475 185 403 -2176
2019-08-24 16:31:07 GMT 33.732265 -97.612785 17,000 185 402 -2240
2019-08-24 16:31:01 GMT 33.745670 -97.611633 17,250 185 402 -2240
2019-08-24 16:30:56 GMT 33.752518 -97.611061 17,400 185 402 -2240
2019-08-24 16:30:53 GMT 33.760895 -97.610321 17,625 184 405 -2240
2019-08-24 16:30:50 GMT 33.765362 -97.609978 17,625 185 402 -2240
2019-08-24 16:30:45 GMT 33.772614 -97.609322 17,700 184 404 -2304
2019-08-24 16:30:42 GMT 33.781376 -97.608543 17,925 185 403 -2176
2019-08-24 16:30:35 GMT 33.793667 -97.607460 18,150 185 403 -2240
2019-08-24 16:30:30 GMT 33.802605 -97.606712 18,325 185 403 -2176
2019-08-24 16:30:27 GMT 33.806328 -97.606377 18,400 184 402 -2176
2019-08-24 16:30:23 GMT 33.813778 -97.605743 18,525 184 402 -2304
2019-08-24 16:30:19 GMT 33.823833 -97.604942 18,650 184 402 -2304
2019-08-24 16:30:15 GMT 33.829605 -97.604500 18,850 184 403 -2304
2019-08-24 16:30:12 GMT 33.835003 -97.604080 18,950 184 403 -2304
2019-08-24 16:30:09 GMT 33.843063 -97.603378 19,100 184 404 -2304
2019-08-24 16:30:04 GMT 33.848877 -97.602943 19,225 184 405 -2304
2019-08-24 16:30:01 GMT 33.855057 -97.602425 19,325 184 406 -2240
2019-08-24 16:29:54 GMT 33.868652 -97.601303 19,625 184 409 -2304
2019-08-24 16:29:51 GMT 33.874481 -97.600822 19,675 184 409 -2304
2019-08-24 16:29:47 GMT 33.883606 -97.600082 19,850 184 413 -2368
2019-08-24 16:29:43 GMT 33.891613 -97.599449 20,000 185 413 -2368
2019-08-24 16:29:40 GMT 33.895058 -97.599159 20,075 184 413 -2368
2019-08-24 16:29:36 GMT 33.905594 -97.598282 20,275 185 415 -2368
2019-08-24 16:29:33 GMT 33.909439 -97.597946 20,325 185 416 -2368
2019-08-24 16:29:30 GMT 33.917130 -97.597267 20,500 185 417 -2304
2019-08-24 16:29:27 GMT 33.920197 -97.597046 20,550 185 418 -2240
2019-08-24 16:29:22 GMT 33.930267 -97.596146 20,700 184 420 -2112
2019-08-24 16:29:17 GMT 33.939793 -97.595390 20,875 185 422 -1984
2019-08-24 16:29:11 GMT 33.952271 -97.594299 21,075 185 424 -1920
2019-08-24 16:29:06 GMT 33.960510 -97.593613 21,225 185 425 -1920
2019-08-24 16:29:00 GMT 33.973545 -97.592468 21,350 185 427 -1920
2019-08-24 16:28:55 GMT 33.983185 -97.591667 21,550 185 428 -1984
2019-08-24 16:28:49 GMT 33.994675 -97.590652 21,725 185 429 -1920
2019-08-24 16:28:45 GMT 34.002827 -97.590012 21,825 185 430 -1856
2019-08-24 16:28:39 GMT 34.016743 -97.588860 22,025 184 432 -1728
2019-08-24 16:28:34 GMT 34.024109 -97.588249 22,125 184 432 -1728
2019-08-24 16:28:27 GMT 34.039135 -97.586975 22,325 184 434 -1728
2019-08-24 16:28:24 GMT 34.045349 -97.586449 22,450 184 434 -1728
2019-08-24 16:28:16 GMT 34.061005 -97.585159 22,625 185 435 -1728
2019-08-24 16:28:13 GMT 34.065857 -97.584717 22,675 185 435 -1728
2019-08-24 16:28:05 GMT 34.083778 -97.583138 22,925 185 436 -1728
2019-08-24 16:28:01 GMT 34.089787 -97.582626 23,000 185 436 -1792
2019-08-24 16:27:53 GMT 34.106140 -97.581238 23,250 185 436 -2048
2019-08-24 16:27:50 GMT 34.112183 -97.580681 23,350 185 436 -2112
2019-08-24 16:27:42 GMT 34.129307 -97.579193 23,700 184 435 -1984
2019-08-24 16:27:31 GMT 34.153610 -97.577148 23,950 185 434 -1472
2019-08-24 16:27:21 GMT 34.171856 -97.575584 24,000 184 435 128
2019-08-24 16:27:12 GMT 34.192341 -97.573875 24,000 185 436 -64
2019-08-24 16:27:01 GMT 34.214592 -97.571983 24,125 184 440 -1024
2019-08-24 16:26:50 GMT 34.236237 -97.570213 24,475 185 442 -2432
2019-08-24 16:26:47 GMT 34.239498 -97.569923 24,525 185 442 -2432
2019-08-24 16:26:38 GMT 34.260773 -97.568153 24,925 185 443 -2496
2019-08-24 16:26:25 GMT 34.284557 -97.566147 25,350 185 444 -2496
2019-08-24 16:26:16 GMT 34.305882 -97.564316 25,775 185 444 -2432
2019-08-24 16:26:04 GMT 34.329529 -97.562347 26,225 184 446 -2496
2019-08-24 16:25:54 GMT 34.359604 -97.559769 26,775 185 446 -2432
2019-08-24 16:25:46 GMT 34.365189 -97.559280 27,050 185 449 -2432
2019-08-24 16:25:42 GMT 34.373657 -97.558540 27,000 185 449 -2432
2019-08-24 16:25:33 GMT 34.393661 -97.556801 27,500 184 459 -2496
2019-08-24 16:25:24 GMT 34.410873 -97.555344 28,000 185 457 -2432
2019-08-24 16:25:20 GMT 34.419559 -97.554588 27,850 184 459 -2496
2019-08-24 16:25:15 GMT 34.432316 -97.553497 28,125 184 464 -2496
2019-08-24 16:25:09 GMT 34.445210 -97.552414 28,350 184 467 -2432
2019-08-24 16:24:59 GMT 34.465302 -97.550804 28,675 184 470 -2432
2019-08-24 16:24:56 GMT 34.472492 -97.550179 28,825 184 470 -2432
2019-08-24 16:24:51 GMT 34.491852 -97.548615 29,125 184 472 -2496
2019-08-24 16:24:47 GMT 34.491852 -97.548615 29,175 184 472 -2496
2019-08-24 16:24:43 GMT 34.501678 -97.547775 29,350 184 473 -2432
2019-08-24 16:24:37 GMT 34.513039 -97.546867 29,550 184 473 -2496
2019-08-24 16:24:33 GMT 34.525700 -97.545776 29,775 184 474 -2432
2019-08-24 16:24:29 GMT 34.529655 -97.545486 29,775 184 474 -2432
2019-08-24 16:24:26 GMT 34.537525 -97.544807 29,950 185 474 -2432
2019-08-24 16:24:21 GMT 34.548931 -97.543831 30,175 185 475 -2496
2019-08-24 16:24:16 GMT 34.561218 -97.542747 30,400 185 474 -2496
2019-08-24 16:24:12 GMT 34.570221 -97.541946 30,550 185 474 -2496
2019-08-24 16:24:08 GMT 34.575649 -97.541489 31,100 185 471 -2496
2019-08-24 16:24:04 GMT 34.587662 -97.540436 30,875 185 471 -2496
2019-08-24 16:24:01 GMT 34.594410 -97.539825 31,000 185 471 -2432
2019-08-24 16:23:57 GMT 34.601166 -97.539253 31,025 185 470 -2496
2019-08-24 16:23:54 GMT 34.608948 -97.538582 31,250 185 469 -2496
2019-08-24 16:23:49 GMT 34.619339 -97.537689 31,450 185 466 -2496
2019-08-24 16:23:42 GMT 34.633163 -97.536507 31,900 185 464 -2496
2019-08-24 16:23:39 GMT 34.640636 -97.535820 31,825 185 464 -2496
2019-08-24 16:23:35 GMT 34.648785 -97.535072 31,975 185 440 -2304
2019-08-24 16:23:29 GMT 34.660080 -97.534096 32,175 185 460 -2496
2019-08-24 16:23:26 GMT 34.666855 -97.533485 32,350 185 440 -2304
2019-08-24 16:23:20 GMT 34.687328 -97.531647 32,825 185 454 -2304
2019-08-24 16:23:16 GMT 34.687328 -97.531647 32,675 185 454 -2304
2019-08-24 16:23:11 GMT 34.700134 -97.530457 32,875 185 451 -2304
2019-08-24 16:23:08 GMT 34.706184 -97.529922 33,000 185 450 -2368
2019-08-24 16:23:04 GMT 34.712631 -97.529388 33,100 185 450 -2304
2019-08-24 16:23:00 GMT 34.722801 -97.528549 33,275 184 445 -2112
2019-08-24 16:22:57 GMT 34.728992 -97.528038 33,375 184 445 -2112
2019-08-24 16:22:53 GMT 34.736160 -97.527428 33,500 185 444 -2112
2019-08-24 16:22:44 GMT 34.753372 -97.525970 33,975 185 441 -2240
2019-08-24 16:22:36 GMT 34.772705 -97.524323 34,125 185 440 -2304
2019-08-24 16:22:33 GMT 34.776756 -97.523972 34,200 185 440 -2304
2019-08-24 16:22:27 GMT 34.797054 -97.522202 34,500 185 440 -2240
2019-08-24 16:22:23 GMT 34.797054 -97.522202 34,550 185 440 -2240
2019-08-24 16:22:16 GMT 34.814137 -97.520599 34,850 185 441 -2176
2019-08-24 16:22:13 GMT 34.819447 -97.520142 34,950 185 441 -2176
2019-08-24 16:22:08 GMT 34.828800 -97.519226 35,200 185 442 -2176
2019-08-24 16:22:04 GMT 34.834946 -97.518707 35,425 185 443 -2240
2019-08-24 16:22:01 GMT 34.842499 -97.518013 35,425 185 443 -2240
2019-08-24 16:21:58 GMT 34.849655 -97.517342 35,475 185 443 -2240
2019-08-24 16:21:55 GMT 34.858017 -97.516556 35,600 185 443 -2304
2019-08-24 16:21:52 GMT 34.862549 -97.516106 35,700 185 443 -2304
2019-08-24 16:21:49 GMT 34.868881 -97.515511 35,800 185 443 -2304
2019-08-24 16:21:41 GMT 34.885483 -97.513977 36,100 185 443 -2368
2019-08-24 16:21:38 GMT 34.890995 -97.513451 36,200 185 443 -2368
2019-08-24 16:21:33 GMT 34.901413 -97.512459 36,400 185 443 -2368
2019-08-24 16:21:29 GMT 34.906769 -97.511955 36,500 185 444 -2304
2019-08-24 16:21:26 GMT 34.913315 -97.511337 36,600 185 444 -2304
2019-08-24 16:21:22 GMT 34.921097 -97.510666 36,725 185 444 -2240
2019-08-24 16:21:17 GMT 34.932175 -97.509712 36,925 184 445 -2304
2019-08-24 16:21:13 GMT 34.942249 -97.508865 37,125 184 445 -2304
2019-08-24 16:21:04 GMT 34.959103 -97.507668 37,425 182 444 -2304
2019-08-24 16:21:01 GMT 34.965244 -97.507378 37,575 182 444 -2304
2019-08-24 16:20:57 GMT 34.972412 -97.507248 37,675 180 444 -2240
2019-08-24 16:20:52 GMT 34.987034 -97.507668 37,900 170 447 -64
2019-08-24 16:20:49 GMT 34.989918 -97.507835 37,925 176 445 -1280
2019-08-24 16:20:43 GMT 35.002441 -97.508934 38,000 174 446 -256
2019-08-24 16:20:40 GMT 35.007797 -97.509659 38,000 173 446 64
2019-08-24 16:20:37 GMT 35.015755 -97.510872 38,000 171 447 0
2019-08-24 16:20:30 GMT 35.031303 -97.513908 38,000 169 447 -64
2019-08-24 16:20:26 GMT 35.037449 -97.515282 38,000 165 449 0
2019-08-24 16:20:20 GMT 35.049408 -97.518402 38,000 166 449 0
2019-08-24 16:20:13 GMT 35.065750 -97.523293 38,000 165 449 0
2019-08-24 16:20:08 GMT 35.072598 -97.525635 38,000 164 450 0
2019-08-24 16:20:04 GMT 35.080231 -97.528267 38,000 164 450 0
2019-08-24 16:19:59 GMT 35.092072 -97.532417 38,000 163 450 64
2019-08-24 16:19:56 GMT 35.098068 -97.534492 38,000 163 450 0
2019-08-24 16:19:48 GMT 35.113888 -97.540115 38,000 163 450 0
2019-08-24 16:19:45 GMT 35.127899 -97.545090 38,000 163 450 0
2019-08-24 16:19:39 GMT 35.133904 -97.547264 38,000 163 450 -64
2019-08-24 16:19:31 GMT 35.147919 -97.552299 38,025 163 450 0
2019-08-24 16:19:28 GMT 35.153687 -97.554390 38,025 164 448 0
2019-08-24 16:19:23 GMT 35.163883 -97.558083 38,000 163 450 64
2019-08-24 16:19:18 GMT 35.176071 -97.562462 38,000 163 450 0
2019-08-24 16:19:10 GMT 35.188065 -97.566780 38,000 163 449 -64
2019-08-24 16:19:06 GMT 35.198238 -97.570435 38,025 163 449 -64
2019-08-24 16:19:00 GMT 35.209991 -97.574570 38,000 175 443 64
2019-08-24 16:18:56 GMT 35.216209 -97.576614 38,025 165 448 64
2019-08-24 16:18:46 GMT 35.239014 -97.582855 38,000 170 445 64
2019-08-24 16:18:35 GMT 35.259384 -97.586517 38,000 173 443 64
2019-08-24 16:18:30 GMT 35.271839 -97.587868 38,000 178 441 0
2019-08-24 16:18:26 GMT 35.281242 -97.588455 38,000 178 441 0
2019-08-24 16:18:18 GMT 35.294907 -97.588692 38,000 182 439 0
2019-08-24 16:18:13 GMT 35.303833 -97.588409 38,000 193 434 0
2019-08-24 16:18:08 GMT 35.316422 -97.587379 38,000 186 437 0
2019-08-24 16:18:05 GMT 35.322418 -97.586693 38,000 187 436 0
2019-08-24 16:17:59 GMT 35.332443 -97.585144 38,000 193 434 0
2019-08-24 16:17:53 GMT 35.345169 -97.582565 38,000 192 434 64
2019-08-24 16:17:44 GMT 35.365128 -97.577019 38,000 196 433 -64
2019-08-24 16:17:34 GMT 35.389290 -97.567711 38,000 202 430 0
2019-08-24 16:17:30 GMT 35.389290 -97.567711 38,000 201 430 0
2019-08-24 16:17:23 GMT 35.404095 -97.560524 38,000 205 428 64
2019-08-24 16:17:11 GMT 35.423878 -97.549248 38,000 208 428 64
2019-08-24 16:17:01 GMT 35.440823 -97.537849 38,000 211 426 -64
2019-08-24 16:16:51 GMT 35.459492 -97.523415 38,000 215 424 64
2019-08-24 16:16:46 GMT 35.472107 -97.512779 38,025 215 424 -64
2019-08-24 16:16:43 GMT 35.472107 -97.512779 38,025 215 424 64
2019-08-24 16:16:38 GMT 35.480488 -97.505646 38,000 215 424 128
2019-08-24 16:16:34 GMT 35.486305 -97.500740 38,000 215 424 -64
2019-08-24 16:16:30 GMT 35.493103 -97.494957 38,000 215 425 0
2019-08-24 16:16:27 GMT 35.496506 -97.492104 38,000 215 424 -64
2019-08-24 16:16:16 GMT 35.515549 -97.475967 38,000 215 424 -64
2019-08-24 16:16:08 GMT 35.528824 -97.464752 38,000 215 424 0
2019-08-24 16:16:05 GMT 35.532028 -97.462006 38,000 215 424 0
2019-08-24 16:15:57 GMT 35.544983 -97.451134 38,000 215 424 64
2019-08-24 16:15:53 GMT 35.551617 -97.445518 38,000 215 424 64
2019-08-24 16:15:49 GMT 35.560455 -97.437973 38,000 215 424 0
2019-08-24 16:15:45 GMT 35.566097 -97.433189 38,000 215 424 0
2019-08-24 16:15:37 GMT 35.577408 -97.423660 38,000 215 423 0
2019-08-24 16:15:34 GMT 35.583069 -97.418861 38,000 215 423 64
2019-08-24 16:15:28 GMT 35.591930 -97.411331 38,000 215 424 0
2019-08-24 16:15:25 GMT 35.596939 -97.407074 38,000 215 423 0
2019-08-24 16:15:22 GMT 35.600784 -97.403809 38,000 215 423 -64
2019-08-24 16:15:17 GMT 35.610600 -97.395493 38,000 215 423 -64
2019-08-24 16:15:12 GMT 35.619461 -97.387962 38,000 215 423 0
2019-08-24 16:15:09 GMT 35.624474 -97.383690 38,000 215 423 0
2019-08-24 16:15:04 GMT 35.630569 -97.378487 38,000 215 423 0
2019-08-24 16:15:01 GMT 35.635086 -97.374687 38,000 215 423 64
2019-08-24 16:14:57 GMT 35.644272 -97.366852 38,000 215 423 64
2019-08-24 16:14:52 GMT 35.651520 -97.360725 38,000 215 423 64
2019-08-24 16:14:49 GMT 35.654732 -97.357979 38,000 215 424 64
2019-08-24 16:14:45 GMT 35.660385 -97.353172 38,000 215 423 -128
2019-08-24 16:14:40 GMT 35.669083 -97.345795 38,000 215 423 -128
2019-08-24 16:14:36 GMT 35.677780 -97.338409 38,000 215 423 -64
2019-08-24 16:14:29 GMT 35.688248 -97.329514 38,000 215 423 0
2019-08-24 16:14:23 GMT 35.695450 -97.323303 38,000 215 423 64
2019-08-24 16:14:18 GMT 35.706264 -97.314148 38,000 215 423 64
2019-08-24 16:14:15 GMT 35.712204 -97.309052 38,000 215 423 0
2019-08-24 16:14:07 GMT 35.723766 -97.299126 38,000 215 423 0
2019-08-24 16:14:03 GMT 35.730194 -97.293663 38,000 215 423 -64
2019-08-24 16:13:51 GMT 35.749653 -97.276978 38,000 216 423 -128
2019-08-24 16:13:47 GMT 35.754818 -97.272598 38,025 215 424 128
2019-08-24 16:13:43 GMT 35.760590 -97.267632 38,025 216 423 64
2019-08-24 16:13:40 GMT 35.767181 -97.261963 38,025 216 423 64
2019-08-24 16:13:31 GMT 35.781818 -97.249397 37,975 215 424 0
2019-08-24 16:13:21 GMT 35.797760 -97.235756 38,000 216 425 -192
2019-08-24 16:13:18 GMT 35.800323 -97.233521 38,025 216 424 -128
2019-08-24 16:13:14 GMT 35.807236 -97.227547 38,025 215 424 128
2019-08-24 16:13:11 GMT 35.812546 -97.223000 38,025 215 424 128
2019-08-24 16:13:08 GMT 35.818176 -97.218193 38,000 215 424 256
2019-08-24 16:13:04 GMT 35.824173 -97.213097 38,000 215 424 192
2019-08-24 16:13:01 GMT 35.828838 -97.209076 37,975 215 425 128
2019-08-24 16:12:57 GMT 35.836716 -97.202286 37,975 215 425 64
2019-08-24 16:12:49 GMT 35.849945 -97.190895 38,000 216 425 -256
2019-08-24 16:12:41 GMT 35.861702 -97.180794 38,025 216 425 64
2019-08-24 16:12:34 GMT 35.871552 -97.172356 38,000 215 424 128
2019-08-24 16:12:30 GMT 35.878647 -97.166290 38,000 215 425 64
2019-08-24 16:12:26 GMT 35.885586 -97.160339 38,000 215 425 64
2019-08-24 16:12:23 GMT 35.889774 -97.156715 38,000 215 426 64
2019-08-24 16:12:18 GMT 35.898525 -97.149292 37,975 215 425 -128
2019-08-24 16:12:14 GMT 35.904949 -97.143745 38,025 216 425 128
2019-08-24 16:12:10 GMT 35.911419 -97.138191 38,025 216 425 128
2019-08-24 16:12:07 GMT 35.915936 -97.134331 37,975 215 427 192
2019-08-24 16:12:02 GMT 35.923508 -97.127785 38,000 216 426 256
2019-08-24 16:11:58 GMT 35.931564 -97.120857 37,975 216 426 192
2019-08-24 16:11:52 GMT 35.940948 -97.112732 37,975 215 428 -64
2019-08-24 16:11:47 GMT 35.949223 -97.105644 38,000 215 427 -192
2019-08-24 16:11:40 GMT 35.959602 -97.096756 38,000 215 427 -256
2019-08-24 16:11:36 GMT 35.966904 -97.090469 38,025 216 426 -192
2019-08-24 16:11:29 GMT 35.976128 -97.082497 38,000 215 427 192
2019-08-24 16:11:26 GMT 35.981621 -97.077766 38,000 215 427 192
2019-08-24 16:11:23 GMT 35.986633 -97.073418 38,000 215 427 64
2019-08-24 16:11:20 GMT 35.991631 -97.069115 38,000 215 427 64
2019-08-24 16:11:13 GMT 36.001877 -97.060318 38,000 216 427 -64
2019-08-24 16:11:09 GMT 36.010300 -97.053055 38,000 215 427 -64
2019-08-24 16:11:05 GMT 36.017075 -97.047218 38,000 216 427 -64
2019-08-24 16:11:02 GMT 36.021145 -97.043694 38,000 216 427 -64
2019-08-24 16:10:58 GMT 36.025986 -97.039551 38,000 216 428 64
2019-08-24 16:10:52 GMT 36.037994 -97.029205 38,000 216 427 -64
2019-08-24 16:10:49 GMT 36.044468 -97.023598 38,000 216 427 -64
2019-08-24 16:10:45 GMT 36.050285 -97.018509 38,000 216 427 -64
2019-08-24 16:10:42 GMT 36.054523 -97.014885 38,000 216 428 0
2019-08-24 16:10:38 GMT 36.060341 -97.009865 38,000 216 427 64
2019-08-24 16:10:33 GMT 36.067837 -97.003372 38,000 216 428 0
2019-08-24 16:10:30 GMT 36.077564 -96.994957 38,000 216 428 -64
2019-08-24 16:10:27 GMT 36.077564 -96.994957 38,000 216 428 0
2019-08-24 16:10:23 GMT 36.085339 -96.988243 38,000 216 428 0
2019-08-24 16:10:20 GMT 36.093933 -96.980843 38,000 216 428 -128
2019-08-24 16:10:13 GMT 36.100609 -96.975090 38,025 216 427 -64
2019-08-24 16:10:10 GMT 36.105125 -96.971176 38,025 216 427 64
2019-08-24 16:10:07 GMT 36.111271 -96.965797 38,000 216 427 -64
2019-08-24 16:10:03 GMT 36.118240 -96.959785 38,000 216 427 64
2019-08-24 16:09:56 GMT 36.128311 -96.951080 38,000 216 428 0
2019-08-24 16:09:53 GMT 36.132843 -96.947189 38,000 216 427 64
2019-08-24 16:09:50 GMT 36.144974 -96.936638 38,000 216 427 -64
2019-08-24 16:09:46 GMT 36.144974 -96.936638 38,000 216 427 -64
2019-08-24 16:09:41 GMT 36.153900 -96.928940 38,000 216 427 0
2019-08-24 16:09:37 GMT 36.159760 -96.923843 38,000 216 428 0
2019-08-24 16:09:34 GMT 36.163651 -96.920525 38,000 216 428 0
2019-08-24 16:09:30 GMT 36.170105 -96.914925 38,000 216 428 0
2019-08-24 16:09:25 GMT 36.179535 -96.906799 38,000 216 427 64
2019-08-24 16:09:21 GMT 36.187473 -96.899879 38,000 216 428 64
2019-08-24 16:09:18 GMT 36.190567 -96.897240 38,000 216 428 0
2019-08-24 16:09:13 GMT 36.197205 -96.891464 38,000 215 428 -64
2019-08-24 16:09:10 GMT 36.203201 -96.886314 38,000 215 428 -64
2019-08-24 16:09:06 GMT 36.208374 -96.881844 38,000 215 427 0
2019-08-24 16:09:03 GMT 36.213913 -96.877045 38,025 215 427 -64
2019-08-24 16:09:00 GMT 36.221375 -96.870628 38,025 215 428 0
2019-08-24 16:08:56 GMT 36.224945 -96.867538 38,025 215 428 0
2019-08-24 16:08:50 GMT 36.236122 -96.857925 38,000 216 427 128
2019-08-24 16:08:46 GMT 36.242641 -96.852310 38,000 215 428 128
2019-08-24 16:08:42 GMT 36.247971 -96.847687 38,000 216 428 64
2019-08-24 16:08:39 GMT 36.255432 -96.841225 37,975 216 428 64
2019-08-24 16:08:35 GMT 36.260468 -96.836884 37,975 216 428 0
2019-08-24 16:08:32 GMT 36.265549 -96.832520 37,975 216 428 -64
2019-08-24 16:08:25 GMT 36.276066 -96.823387 38,000 216 428 0
2019-08-24 16:08:21 GMT 36.283401 -96.817078 38,000 216 428 0
2019-08-24 16:08:16 GMT 36.289051 -96.812111 38,000 216 428 0
2019-08-24 16:08:13 GMT 36.294594 -96.807320 38,000 216 428 -64
2019-08-24 16:08:10 GMT 36.301254 -96.801567 38,000 216 428 -64
2019-08-24 16:08:05 GMT 36.309536 -96.794403 38,000 216 428 -64
2019-08-24 16:08:02 GMT 36.314053 -96.790489 38,000 216 428 -64
2019-08-24 16:07:56 GMT 36.323780 -96.782013 38,025 216 427 -128
2019-08-24 16:07:51 GMT 36.330460 -96.776215 38,025 216 427 -64
2019-08-24 16:07:48 GMT 36.335312 -96.771980 38,025 216 427 0
2019-08-24 16:07:45 GMT 36.340305 -96.767639 38,025 216 427 192
2019-08-24 16:07:42 GMT 36.346451 -96.762321 38,025 216 427 192
2019-08-24 16:07:38 GMT 36.353119 -96.756538 38,025 216 427 0
2019-08-24 16:07:34 GMT 36.358788 -96.751564 38,000 216 428 64
2019-08-24 16:07:30 GMT 36.363628 -96.747360 38,000 216 428 64
2019-08-24 16:07:27 GMT 36.371078 -96.740875 38,025 216 427 0
2019-08-24 16:07:24 GMT 36.373489 -96.738739 38,000 216 428 -128
2019-08-24 16:07:21 GMT 36.380630 -96.732506 38,000 216 428 -128
2019-08-24 16:07:15 GMT 36.389839 -96.724449 38,025 216 427 -64
2019-08-24 16:07:09 GMT 36.403431 -96.712585 37,975 216 427 192
2019-08-24 16:07:06 GMT 36.403431 -96.712585 38,000 216 427 192
2019-08-24 16:06:59 GMT 36.414791 -96.702713 38,000 216 428 128
2019-08-24 16:06:54 GMT 36.424347 -96.694389 38,000 216 429 -64
2019-08-24 16:06:49 GMT 36.432293 -96.687462 38,000 216 428 -192
2019-08-24 16:06:43 GMT 36.441513 -96.679398 38,025 216 428 -192
2019-08-24 16:06:37 GMT 36.449615 -96.672302 38,025 216 428 -192
2019-08-24 16:06:33 GMT 36.458176 -96.664841 38,025 216 427 0
2019-08-24 16:06:27 GMT 36.466557 -96.657478 38,025 216 427 256
2019-08-24 16:06:22 GMT 36.475636 -96.649536 37,975 216 429 -64
2019-08-24 16:06:17 GMT 36.484543 -96.641808 37,975 216 429 64
2019-08-24 16:06:11 GMT 36.494293 -96.633286 38,000 216 428 -64
2019-08-24 16:06:06 GMT 36.502216 -96.626389 38,000 216 427 0
2019-08-24 16:06:03 GMT 36.506287 -96.622871 38,000 216 428 64
2019-08-24 16:05:58 GMT 36.515030 -96.615196 38,000 216 428 64
2019-08-24 16:05:55 GMT 36.519241 -96.611542 38,000 216 428 0
2019-08-24 16:05:50 GMT 36.527821 -96.604073 38,000 216 428 0
2019-08-24 16:05:43 GMT 36.539978 -96.593452 38,000 216 428 0
2019-08-24 16:05:39 GMT 36.545471 -96.588654 38,000 216 428 -64
2019-08-24 16:05:34 GMT 36.552444 -96.582565 38,000 216 427 0
2019-08-24 16:05:31 GMT 36.557613 -96.578003 38,000 216 427 0
2019-08-24 16:05:26 GMT 36.566689 -96.570114 38,000 216 428 -64
2019-08-24 16:05:22 GMT 36.573624 -96.563988 38,000 216 428 -64
2019-08-24 16:05:16 GMT 36.580765 -96.557755 38,000 216 428 -64
2019-08-24 16:05:13 GMT 36.586430 -96.552818 38,000 216 428 0
2019-08-24 16:05:10 GMT 36.591595 -96.548264 38,000 216 428 0
2019-08-24 16:05:07 GMT 36.597290 -96.543274 38,000 216 428 0
2019-08-24 16:05:03 GMT 36.603745 -96.537605 38,000 216 428 0
2019-08-24 16:05:00 GMT 36.607315 -96.534515 38,000 216 428 0
2019-08-24 16:04:56 GMT 36.618988 -96.524277 38,000 216 428 0
2019-08-24 16:04:49 GMT 36.625763 -96.518326 38,000 216 428 0
2019-08-24 16:04:45 GMT 36.633545 -96.511459 38,000 216 428 64
2019-08-24 16:04:41 GMT 36.637917 -96.507645 38,000 216 428 0
2019-08-24 16:04:38 GMT 36.644577 -96.501785 38,000 216 428 0
2019-08-24 16:04:32 GMT 36.661236 -96.487137 38,000 216 428 0
2019-08-24 16:04:28 GMT 36.661236 -96.487137 38,000 216 428 64
2019-08-24 16:04:20 GMT 36.672409 -96.477356 38,000 216 428 64
2019-08-24 16:04:16 GMT 36.677948 -96.472488 38,000 216 428 0
2019-08-24 16:04:12 GMT 36.685257 -96.466156 38,000 216 428 -64
2019-08-24 16:04:09 GMT 36.689121 -96.462708 38,000 216 428 -64
2019-08-24 16:04:05 GMT 36.696571 -96.456161 38,000 216 428 -128
2019-08-24 16:04:02 GMT 36.703041 -96.450493 38,000 216 428 128
2019-08-24 16:03:58 GMT 36.706951 -96.447105 38,000 216 428 192
2019-08-24 16:03:54 GMT 36.713882 -96.440964 38,000 216 428 128
2019-08-24 16:03:51 GMT 36.720219 -96.435417 38,000 216 428 -128
2019-08-24 16:03:46 GMT 36.727524 -96.429062 38,000 216 428 -192
2019-08-24 16:03:42 GMT 36.736267 -96.421333 38,025 216 428 -128
2019-08-24 16:03:39 GMT 36.738701 -96.419228 38,025 216 428 64
2019-08-24 16:03:33 GMT 36.748058 -96.410934 38,025 216 428 64
2019-08-24 16:03:29 GMT 36.754807 -96.404968 38,000 216 428 128
2019-08-24 16:03:26 GMT 36.760803 -96.399712 38,000 216 428 128
2019-08-24 16:03:23 GMT 36.765976 -96.395126 38,000 216 428 128
2019-08-24 16:03:18 GMT 36.772430 -96.389465 38,000 216 428 64
2019-08-24 16:03:15 GMT 36.777760 -96.384750 38,000 216 428 64
2019-08-24 16:03:12 GMT 36.783901 -96.379318 38,000 216 428 0
2019-08-24 16:03:08 GMT 36.789871 -96.374069 38,000 216 428 0
2019-08-24 16:03:05 GMT 36.795044 -96.369492 38,000 216 428 -64
2019-08-24 16:03:00 GMT 36.802757 -96.362602 38,000 216 428 -128
2019-08-24 16:02:57 GMT 36.807953 -96.358047 38,000 216 428 -128
2019-08-24 16:02:54 GMT 36.811974 -96.354477 38,000 216 427 -64
2019-08-24 16:02:49 GMT 36.819374 -96.347939 38,025 216 427 64
2019-08-24 16:02:44 GMT 36.828079 -96.340164 37,975 216 428 256
2019-08-24 16:02:39 GMT 36.837112 -96.332153 37,975 216 428 128
2019-08-24 16:02:33 GMT 36.845863 -96.324440 37,975 216 428 -320
2019-08-24 16:02:27 GMT 36.856339 -96.315155 38,025 216 428 -256
2019-08-24 16:02:22 GMT 36.865231 -96.307289 38,025 216 427 -64
2019-08-24 16:02:15 GMT 36.875191 -96.298393 38,000 216 428 192
2019-08-24 16:02:12 GMT 36.878586 -96.295403 38,000 216 428 128
2019-08-24 16:02:09 GMT 36.891220 -96.284241 37,975 216 429 0
2019-08-24 16:02:05 GMT 36.891220 -96.284241 38,000 216 429 -64
2019-08-24 16:02:01 GMT 36.898842 -96.277489 38,000 216 428 -128
2019-08-24 16:01:51 GMT 36.913193 -96.264778 38,025 216 428 -64
2019-08-24 16:01:41 GMT 36.930679 -96.249290 38,000 216 428 320
2019-08-24 16:01:33 GMT 36.942505 -96.238861 37,975 216 429 64
2019-08-24 16:01:30 GMT 36.948650 -96.233429 37,975 216 430 -128
2019-08-24 16:01:18 GMT 36.969738 -96.214798 38,000 216 429 128
2019-08-24 16:01:12 GMT 36.975883 -96.209366 38,000 216 429 192
2019-08-24 16:01:06 GMT 36.991974 -96.195122 37,975 216 430 -192
2019-08-24 16:00:58 GMT 37.000076 -96.187935 38,000 216 430 -192
2019-08-24 16:00:51 GMT 37.010937 -96.178314 38,025 216 429 -64
2019-08-24 16:00:47 GMT 37.016922 -96.172974 38,025 216 429 0
2019-08-24 16:00:35 GMT 37.035370 -96.156609 38,025 216 429 64
2019-08-24 16:00:26 GMT 37.051067 -96.142609 38,000 216 429 0
2019-08-24 16:00:17 GMT 37.065765 -96.129433 38,000 216 430 128
2019-08-24 16:00:14 GMT 37.071129 -96.124702 38,000 216 430 128
2019-08-24 16:00:06 GMT 37.083572 -96.113480 38,025 216 430 64
2019-08-24 15:59:53 GMT 37.105438 -96.094009 38,000 216 430 0
2019-08-24 15:59:45 GMT 37.117630 -96.083153 38,000 216 430 64
2019-08-24 15:59:41 GMT 37.122482 -96.078827 38,000 216 430 64
2019-08-24 15:59:35 GMT 37.138138 -96.064980 38,000 216 431 -64
2019-08-24 15:59:22 GMT 37.155853 -96.049225 38,000 216 431 0
2019-08-24 15:59:13 GMT 37.169678 -96.036926 38,000 216 432 0
2019-08-24 15:59:10 GMT 37.173126 -96.033882 38,000 216 432 0
2019-08-24 15:59:03 GMT 37.186115 -96.022301 38,000 216 434 0
2019-08-24 15:59:00 GMT 37.191147 -96.017761 38,000 216 434 0
2019-08-24 15:58:50 GMT 37.207573 -96.003014 38,000 216 432 0
2019-08-24 15:58:39 GMT 37.225777 -95.986710 38,000 216 432 128
2019-08-24 15:58:28 GMT 37.244202 -95.970192 38,000 216 432 -128
2019-08-24 15:58:20 GMT 37.255600 -95.959969 38,025 216 433 64
2019-08-24 15:58:17 GMT 37.261780 -95.954414 38,000 216 433 64
2019-08-24 15:58:05 GMT 37.280045 -95.937996 38,000 216 434 64
2019-08-24 15:57:56 GMT 37.296021 -95.923561 38,000 216 435 -64
2019-08-24 15:57:46 GMT 37.310921 -95.910164 38,000 216 435 64
2019-08-24 15:57:43 GMT 37.316788 -95.904854 38,000 216 435 64
2019-08-24 15:57:33 GMT 37.333328 -95.889961 38,000 216 435 0
2019-08-24 15:57:22 GMT 37.351685 -95.873421 38,000 216 437 320
2019-08-24 15:57:11 GMT 37.369995 -95.857147 38,025 216 437 -320
2019-08-24 15:57:00 GMT 37.387081 -95.841805 38,000 216 437 192
2019-08-24 15:56:51 GMT 37.401234 -95.829086 38,000 216 439 -128
2019-08-24 15:56:48 GMT 37.405842 -95.824966 38,000 216 438 0
2019-08-24 15:56:41 GMT 37.418736 -95.813377 38,000 216 438 0
2019-08-24 15:56:37 GMT 37.423344 -95.809196 38,000 216 439 128
2019-08-24 15:56:30 GMT 37.435539 -95.798218 37,975 216 439 192
2019-08-24 15:56:27 GMT 37.440994 -95.793304 37,975 216 439 -192
2019-08-24 15:56:20 GMT 37.452850 -95.782547 38,000 216 439 -192
2019-08-24 15:56:16 GMT 37.460304 -95.775826 38,000 216 439 0
2019-08-24 15:56:12 GMT 37.465393 -95.771210 38,000 216 439 -64
2019-08-24 15:56:09 GMT 37.471806 -95.765434 38,000 216 439 -64
2019-08-24 15:56:04 GMT 37.477615 -95.760223 38,000 217 439 -256
2019-08-24 15:56:01 GMT 37.483025 -95.755287 38,025 216 439 -192
2019-08-24 15:55:58 GMT 37.490753 -95.748245 38,000 216 413 0
2019-08-24 15:55:51 GMT 37.499504 -95.740356 38,000 216 438 64
2019-08-24 15:55:47 GMT 37.507233 -95.733398 38,000 216 438 256
2019-08-24 15:55:40 GMT 37.517807 -95.723877 38,000 216 437 -64
2019-08-24 15:55:36 GMT 37.525200 -95.717247 38,025 216 436 -192
2019-08-24 15:55:30 GMT 37.534370 -95.708946 38,025 216 434 0
2019-08-24 15:55:26 GMT 37.542843 -95.701248 38,000 216 434 0
2019-08-24 15:55:22 GMT 37.548710 -95.695930 38,000 216 434 0
2019-08-24 15:55:18 GMT 37.556076 -95.689285 38,000 216 413 0
2019-08-24 15:55:15 GMT 37.560486 -95.685303 38,000 216 433 0
2019-08-24 15:55:10 GMT 37.566193 -95.680168 38,000 216 432 -128
2019-08-24 15:55:07 GMT 37.572823 -95.674141 38,025 216 432 -64
2019-08-24 15:55:04 GMT 37.577545 -95.669884 38,000 216 431 0
2019-08-24 15:54:59 GMT 37.584320 -95.663742 38,000 216 431 64
2019-08-24 15:54:55 GMT 37.595493 -95.653664 38,000 216 429 0
2019-08-24 15:54:47 GMT 37.605011 -95.645042 38,000 216 429 64
2019-08-24 15:54:43 GMT 37.612427 -95.638382 38,000 216 427 0
2019-08-24 15:54:37 GMT 37.622040 -95.629677 38,000 216 426 -64
2019-08-24 15:54:32 GMT 37.629894 -95.622551 38,000 216 425 -128
2019-08-24 15:54:28 GMT 37.636734 -95.616348 38,000 216 424 0
2019-08-24 15:54:24 GMT 37.642136 -95.611443 38,000 216 423 0
2019-08-24 15:54:21 GMT 37.646145 -95.607864 38,000 216 423 0
2019-08-24 15:54:17 GMT 37.652939 -95.601685 38,000 216 421 64
2019-08-24 15:54:11 GMT 37.663376 -95.592216 38,000 216 420 64
2019-08-24 15:54:05 GMT 37.671570 -95.584740 38,000 216 419 -64
2019-08-24 15:54:00 GMT 37.680359 -95.576790 38,000 216 416 -128
2019-08-24 15:53:54 GMT 37.689102 -95.568840 38,000 216 414 256
2019-08-24 15:53:48 GMT 37.697159 -95.561539 37,950 216 413 832
2019-08-24 15:53:41 GMT 37.709885 -95.549965 37,825 216 412 832
2019-08-24 15:53:38 GMT 37.721790 -95.539139 37,425 216 411 1088
2019-08-24 15:53:32 GMT 37.721790 -95.539139 37,750 216 412 1024
2019-08-24 15:53:29 GMT 37.728260 -95.533226 37,650 217 411 1216
2019-08-24 15:53:26 GMT 37.731335 -95.530418 37,425 217 413 1472
2019-08-24 15:53:22 GMT 37.738129 -95.524216 37,525 216 412 1408
2019-08-24 15:53:19 GMT 37.744125 -95.518761 37,425 217 413 1472
2019-08-24 15:53:16 GMT 37.747559 -95.515602 37,350 216 413 1280
2019-08-24 15:53:13 GMT 37.753540 -95.510124 37,250 217 413 1472
2019-08-24 15:53:09 GMT 37.758957 -95.505142 37,175 216 413 1152
2019-08-24 15:53:06 GMT 37.764221 -95.500351 37,150 216 413 1088
2019-08-24 15:53:02 GMT 37.769485 -95.495499 37,075 216 413 1024
2019-08-24 15:52:58 GMT 37.774906 -95.490540 37,000 217 413 1152
2019-08-24 15:52:55 GMT 37.780930 -95.485039 37,000 217 413 1152
2019-08-24 15:52:49 GMT 37.797485 -95.469940 36,775 217 412 896
2019-08-24 15:52:43 GMT 37.797485 -95.469940 36,750 217 413 1024
2019-08-24 15:52:39 GMT 37.805817 -95.462234 36,675 217 412 1024
2019-08-24 15:52:33 GMT 37.813545 -95.455193 36,575 216 412 1472
2019-08-24 15:52:28 GMT 37.822357 -95.447113 36,425 216 412 1600
2019-08-24 15:52:23 GMT 37.830257 -95.439903 36,300 217 413 1600
2019-08-24 15:52:17 GMT 37.839340 -95.431572 36,050 216 414 1536
2019-08-24 15:52:14 GMT 37.844925 -95.426430 36,050 216 414 1536
2019-08-24 15:52:11 GMT 37.847443 -95.424149 36,000 216 414 1600
2019-08-24 15:52:08 GMT 37.851624 -95.420319 35,950 216 414 1408
2019-08-24 15:52:04 GMT 37.858017 -95.414505 35,850 216 415 1344
2019-08-24 15:52:01 GMT 37.863449 -95.409569 35,775 216 415 1344
2019-08-24 15:51:58 GMT 37.867779 -95.405571 35,725 216 415 1472
2019-08-24 15:51:55 GMT 37.874016 -95.399841 35,625 216 415 1536
2019-08-24 15:51:51 GMT 37.880207 -95.394165 35,525 216 415 1472
2019-08-24 15:51:48 GMT 37.885025 -95.389786 35,450 216 415 1408
2019-08-24 15:51:44 GMT 37.891380 -95.383896 35,375 217 415 1408
2019-08-24 15:51:40 GMT 37.897293 -95.378464 35,275 216 415 1472
2019-08-24 15:51:37 GMT 37.901184 -95.374947 35,225 216 415 1536
2019-08-24 15:51:31 GMT 37.909927 -95.366936 35,125 216 416 1408
2019-08-24 15:51:27 GMT 37.917217 -95.360252 35,000 216 415 1088
2019-08-24 15:51:21 GMT 37.926682 -95.351570 34,875 217 414 1216
2019-08-24 15:51:18 GMT 37.933975 -95.344849 34,800 216 413 1216
2019-08-24 15:51:10 GMT 37.943756 -95.335907 34,675 216 413 1280
2019-08-24 15:51:05 GMT 37.950085 -95.330101 34,600 217 413 1344
2019-08-24 15:51:01 GMT 37.958138 -95.322701 34,475 217 413 1408
2019-08-24 15:50:57 GMT 37.964607 -95.316727 34,375 217 413 1536
2019-08-24 15:50:49 GMT 37.975616 -95.306633 34,225 217 413 1664
2019-08-24 15:50:46 GMT 37.981365 -95.301384 34,075 217 414 2112
2019-08-24 15:50:43 GMT 37.983505 -95.299408 34,025 217 414 2240
2019-08-24 15:50:39 GMT 37.999058 -95.285080 33,525 217 416 2560
2019-08-24 15:50:34 GMT 37.999058 -95.285080 33,625 216 418 2752
2019-08-24 15:50:26 GMT 38.012604 -95.272720 33,250 216 421 2880
2019-08-24 15:50:23 GMT 38.015305 -95.270279 33,175 216 423 2752
2019-08-24 15:50:16 GMT 38.027267 -95.259407 32,850 216 427 1792
2019-08-24 15:50:13 GMT 38.033478 -95.253685 32,675 216 433 1152
2019-08-24 15:50:07 GMT 38.041809 -95.246033 32,650 217 427 1728
2019-08-24 15:50:04 GMT 38.051376 -95.237144 32,500 217 427 1984
2019-08-24 15:49:57 GMT 38.058105 -95.230949 32,325 216 428 2304
2019-08-24 15:49:53 GMT 38.069366 -95.220612 32,050 216 431 2496
2019-08-24 15:49:40 GMT 38.083782 -95.207397 31,750 216 433 2304
2019-08-24 15:49:31 GMT 38.101051 -95.191521 31,375 216 436 1728
2019-08-24 15:49:27 GMT 38.108547 -95.184654 31,275 216 436 1536
2019-08-24 15:49:20 GMT 38.118042 -95.175934 31,150 216 435 1280
2019-08-24 15:49:09 GMT 38.135605 -95.160126 30,950 216 433 1152
2019-08-24 15:48:58 GMT 38.153366 -95.144524 30,750 213 431 1344
2019-08-24 15:48:48 GMT 38.172649 -95.130615 30,450 207 432 1472
2019-08-24 15:48:37 GMT 38.193226 -95.119392 30,325 199 430 256
2019-08-24 15:48:26 GMT 38.213753 -95.111511 30,225 196 426 832
2019-08-24 15:48:20 GMT 38.222672 -95.108353 30,150 196 424 1280
2019-08-24 15:48:17 GMT 38.230469 -95.105659 30,075 196 424 1408
2019-08-24 15:48:14 GMT 38.234802 -95.104141 30,000 196 424 1472
2019-08-24 15:48:10 GMT 38.244061 -95.100937 29,900 196 422 1408
2019-08-24 15:48:06 GMT 38.249542 -95.099060 29,825 196 421 1344
2019-08-24 15:48:02 GMT 38.257607 -95.096222 29,750 196 421 1152
2019-08-24 15:47:56 GMT 38.270187 -95.091873 29,400 196 415 2176
2019-08-24 15:47:51 GMT 38.278061 -95.089180 29,525 196 417 1152
2019-08-24 15:47:43 GMT 38.297546 -95.082428 29,300 196 416 2304
2019-08-24 15:47:35 GMT 38.309467 -95.078308 29,075 196 417 2304
2019-08-24 15:47:30 GMT 38.317657 -95.075500 28,925 196 418 2368
2019-08-24 15:47:23 GMT 38.330933 -95.070953 28,750 196 419 2112
2019-08-24 15:47:19 GMT 38.336929 -95.068848 28,600 196 419 1600
2019-08-24 15:47:14 GMT 38.349289 -95.064636 28,450 195 418 1216
2019-08-24 15:47:09 GMT 38.357895 -95.061714 28,375 196 416 1152
2019-08-24 15:47:03 GMT 38.367378 -95.058426 28,300 196 414 1344
2019-08-24 15:47:00 GMT 38.375103 -95.055740 28,150 196 413 1792
2019-08-24 15:46:57 GMT 38.378082 -95.054726 28,150 196 413 1792
2019-08-24 15:46:54 GMT 38.386929 -95.051682 28,000 196 412 1664
2019-08-24 15:46:49 GMT 38.394283 -95.049110 27,900 196 412 1664
2019-08-24 15:46:46 GMT 38.398006 -95.047859 27,850 196 411 1664
2019-08-24 15:46:42 GMT 38.407333 -95.044594 27,700 196 410 1536
2019-08-24 15:46:37 GMT 38.417095 -95.041199 27,575 196 410 1600
2019-08-24 15:46:31 GMT 38.426422 -95.038010 27,475 196 408 1664
2019-08-24 15:46:25 GMT 38.436996 -95.034363 26,675 196 392 1280
2019-08-24 15:46:21 GMT 38.446472 -95.031143 27,225 196 406 768
2019-08-24 15:46:17 GMT 38.453545 -95.028748 27,175 196 403 704
2019-08-24 15:46:14 GMT 38.457130 -95.027466 27,150 196 401 832
2019-08-24 15:46:10 GMT 38.464672 -95.024902 27,125 196 400 1024
2019-08-24 15:46:04 GMT 38.475540 -95.021172 26,975 196 397 1536
2019-08-24 15:46:00 GMT 38.483200 -95.018616 26,800 196 393 1280
2019-08-24 15:45:52 GMT 38.495361 -95.014420 26,725 196 393 1216
2019-08-24 15:45:49 GMT 38.502045 -95.012154 26,650 196 392 1280
2019-08-24 15:45:42 GMT 38.513737 -95.008118 26,475 196 389 1728
2019-08-24 15:45:39 GMT 38.520538 -95.005768 26,375 196 388 1984
2019-08-24 15:45:34 GMT 38.535618 -95.000549 26,175 196 388 1984
2019-08-24 15:45:30 GMT 38.535618 -95.000549 26,100 196 388 1984
2019-08-24 15:45:26 GMT 38.541687 -94.998421 26,025 196 388 1984
2019-08-24 15:45:21 GMT 38.551392 -94.995018 25,900 196 386 1792
2019-08-24 15:45:17 GMT 38.558102 -94.992676 25,700 196 386 2048
2019-08-24 15:45:10 GMT 38.570858 -94.988159 25,375 196 386 2944
2019-08-24 15:45:00 GMT 38.588173 -94.982056 25,000 196 389 2432
2019-08-24 15:44:57 GMT 38.592545 -94.980568 24,975 196 390 2176
2019-08-24 15:44:49 GMT 38.606934 -94.975464 24,700 196 386 1536
2019-08-24 15:44:45 GMT 38.611908 -94.973701 24,650 196 386 1472
2019-08-24 15:44:40 GMT 38.622063 -94.970154 24,450 196 383 1984
2019-08-24 15:44:37 GMT 38.627380 -94.968269 24,325 196 382 2240
2019-08-24 15:44:31 GMT 38.635704 -94.965210 24,175 196 382 3264
2019-08-24 15:44:27 GMT 38.643898 -94.962280 23,925 196 384 3584
2019-08-24 15:44:20 GMT 38.653858 -94.958801 23,600 195 387 3264
2019-08-24 15:44:16 GMT 38.664986 -94.954956 23,350 196 388 2112
2019-08-24 15:44:13 GMT 38.667080 -94.954224 23,325 196 388 1600
2019-08-24 15:44:07 GMT 38.679184 -94.949951 23,150 196 386 1600
2019-08-24 15:44:03 GMT 38.685047 -94.947937 23,100 196 385 1664
2019-08-24 15:43:57 GMT 38.696182 -94.943970 22,825 196 383 2048
2019-08-24 15:43:54 GMT 38.704376 -94.940979 22,750 196 382 2112
2019-08-24 15:43:51 GMT 38.704376 -94.940979 22,700 196 381 2112
2019-08-24 15:43:48 GMT 38.709953 -94.938965 22,575 198 380 1792
2019-08-24 15:43:44 GMT 38.717239 -94.936203 22,475 197 380 1920
2019-08-24 15:43:40 GMT 38.723282 -94.933754 22,350 199 378 1664
2019-08-24 15:43:34 GMT 38.735279 -94.928284 22,175 202 375 1536
2019-08-24 15:43:30 GMT 38.740311 -94.925819 22,125 202 373 1664
2019-08-24 15:43:24 GMT 38.751293 -94.919983 21,875 205 370 2560
2019-08-24 15:43:21 GMT 38.758301 -94.915901 21,750 206 369 2944
2019-08-24 15:43:14 GMT 38.766144 -94.911072 21,450 207 370 3264
2019-08-24 15:43:11 GMT 38.771030 -94.907837 21,275 208 371 3264
2019-08-24 15:43:08 GMT 38.775639 -94.904846 21,125 208 372 3072
2019-08-24 15:43:03 GMT 38.782516 -94.900322 20,850 208 372 2112
2019-08-24 15:43:00 GMT 38.786999 -94.897400 20,850 208 372 1984
2019-08-24 15:42:57 GMT 38.792358 -94.893875 20,725 207 371 1856
2019-08-24 15:42:53 GMT 38.800125 -94.888794 20,550 207 368 2304
2019-08-24 15:42:50 GMT 38.803345 -94.886765 20,475 207 367 2688
2019-08-24 15:42:46 GMT 38.808693 -94.883301 20,325 207 367 3136
2019-08-24 15:42:41 GMT 38.815952 -94.878601 20,100 207 368 3072
2019-08-24 15:42:38 GMT 38.819912 -94.876038 19,975 207 368 3008
2019-08-24 15:42:35 GMT 38.826290 -94.871887 19,775 207 368 2880
2019-08-24 15:42:31 GMT 38.832386 -94.867981 19,600 207 368 2560
2019-08-24 15:42:25 GMT 38.839554 -94.863358 19,425 207 368 2112
2019-08-24 15:42:22 GMT 38.846958 -94.858521 19,275 208 365 1920
2019-08-24 15:42:18 GMT 38.850723 -94.856018 19,200 208 364 2048
2019-08-24 15:42:11 GMT 38.862785 -94.848022 18,875 207 361 2816
2019-08-24 15:42:07 GMT 38.867111 -94.845268 18,750 207 360 2880
2019-08-24 15:41:59 GMT 38.879059 -94.837570 18,375 207 360 2496
2019-08-24 15:41:56 GMT 38.882629 -94.835297 18,325 207 358 2432
2019-08-24 15:41:52 GMT 38.890762 -94.830017 18,125 207 357 2496
2019-08-24 15:41:49 GMT 38.895512 -94.826965 17,950 207 355 2496
2019-08-24 15:41:46 GMT 38.898167 -94.825317 17,925 207 355 2496
2019-08-24 15:41:40 GMT 38.908127 -94.818848 17,575 208 352 2816
2019-08-24 15:41:37 GMT 38.912785 -94.815796 17,500 208 352 2944
2019-08-24 15:41:33 GMT 38.916832 -94.813110 17,350 208 352 3264
2019-08-24 15:41:28 GMT 38.923489 -94.808716 17,150 208 352 3584
2019-08-24 15:41:23 GMT 38.931473 -94.803413 16,900 208 353 3392
2019-08-24 15:41:19 GMT 38.937881 -94.799232 16,550 207 353 2688
2019-08-24 15:41:15 GMT 38.943878 -94.795349 16,425 208 352 2816
2019-08-24 15:41:06 GMT 38.955917 -94.787476 16,000 207 351 3520
2019-08-24 15:41:02 GMT 38.962280 -94.783295 15,850 207 350 3712
2019-08-24 15:40:57 GMT 38.971161 -94.777588 15,400 207 353 3712
2019-08-24 15:40:53 GMT 38.975693 -94.774696 15,225 207 354 3456
2019-08-24 15:40:47 GMT 38.985172 -94.768494 14,900 208 353 2816
2019-08-24 15:40:43 GMT 38.989548 -94.765625 14,700 208 352 2816
2019-08-24 15:40:40 GMT 38.994049 -94.762634 14,625 208 351 2688
2019-08-24 15:40:36 GMT 39.001282 -94.757858 14,425 208 350 2560
2019-08-24 15:40:32 GMT 39.005035 -94.755409 14,325 207 349 2432
2019-08-24 15:40:28 GMT 39.016968 -94.747681 14,075 208 345 2048
2019-08-24 15:40:25 GMT 39.019913 -94.745735 13,850 208 340 2304
2019-08-24 15:40:18 GMT 39.026688 -94.741257 13,750 208 338 2688
2019-08-24 15:40:15 GMT 39.031723 -94.737976 13,625 207 337 2880
2019-08-24 15:40:10 GMT 39.037403 -94.734253 13,425 207 335 3456
2019-08-24 15:40:06 GMT 39.043549 -94.730286 13,175 207 336 3648
2019-08-24 15:40:01 GMT 39.056992 -94.721558 12,825 208 336 3136
2019-08-24 15:39:57 GMT 39.056992 -94.721558 12,650 208 336 2880
2019-08-24 15:39:54 GMT 39.061157 -94.718803 12,650 208 336 2880
2019-08-24 15:39:50 GMT 39.070129 -94.712952 12,325 208 333 2944
2019-08-24 15:39:46 GMT 39.070129 -94.712952 12,200 207 333 2816
2019-08-24 15:39:43 GMT 39.074936 -94.709793 12,100 207 330 2048
2019-08-24 15:39:40 GMT 39.085281 -94.703102 11,950 207 326 1344
2019-08-24 15:39:36 GMT 39.085281 -94.703102 11,875 207 322 1024
2019-08-24 15:39:33 GMT 39.086884 -94.702087 11,900 207 322 1024
2019-08-24 15:39:29 GMT 39.092697 -94.698265 11,800 208 316 1088
2019-08-24 15:39:24 GMT 39.106201 -94.689430 11,600 207 304 1856
2019-08-24 15:39:19 GMT 39.106201 -94.689430 11,525 207 301 1984
2019-08-24 15:39:12 GMT 39.115704 -94.683228 11,225 207 293 3200
2019-08-24 15:39:09 GMT 39.118870 -94.681213 11,075 207 292 3712
2019-08-24 15:39:03 GMT 39.126022 -94.676590 10,825 207 292 3712
2019-08-24 15:38:58 GMT 39.132294 -94.672592 10,450 207 291 3008
2019-08-24 15:38:54 GMT 39.137444 -94.669250 10,200 207 288 3200
2019-08-24 15:38:51 GMT 39.141174 -94.666862 10,075 207 286 3392
2019-08-24 15:38:47 GMT 39.144699 -94.664536 9,900 207 285 3712
2019-08-24 15:38:43 GMT 39.149548 -94.661438 9,600 207 284 3840
2019-08-24 15:38:40 GMT 39.153214 -94.659096 9,475 207 284 3712
2019-08-24 15:38:37 GMT 39.157471 -94.656349 9,275 207 283 3584
2019-08-24 15:38:33 GMT 39.162254 -94.653259 8,950 208 281 3904
2019-08-24 15:38:29 GMT 39.166077 -94.650681 8,825 209 281 4416
2019-08-24 15:38:26 GMT 39.169380 -94.648376 8,625 210 282 4416
2019-08-24 15:38:21 GMT 39.174965 -94.644592 8,375 208 283 3840
2019-08-24 15:38:18 GMT 39.178665 -94.642502 8,175 200 280 2816
2019-08-24 15:38:15 GMT 39.181870 -94.641190 8,050 194 277 2880
2019-08-24 15:38:11 GMT 39.187954 -94.639526 7,825 186 271 3072
2019-08-24 15:38:04 GMT 39.195557 -94.638680 7,525 184 267 3072
2019-08-24 15:37:58 GMT 39.203659 -94.637962 7,200 184 262 3008
2019-08-24 15:37:55 GMT 39.208008 -94.637543 7,025 185 258 3392
2019-08-24 15:37:50 GMT 39.213730 -94.636948 6,725 186 256 4288
2019-08-24 15:37:43 GMT 39.220493 -94.636108 6,325 186 256 4672
2019-08-24 15:37:39 GMT 39.225769 -94.635391 5,975 187 257 4992
2019-08-24 15:37:34 GMT 39.232784 -94.634399 5,525 187 260 4608
2019-08-24 15:37:28 GMT 39.238323 -94.633545 5,275 187 261 3456
2019-08-24 15:37:22 GMT 39.245590 -94.632645 4,975 186 256 2304
2019-08-24 15:37:18 GMT 39.250610 -94.632202 4,825 157 226 2688
2019-08-24 15:37:13 GMT 39.256989 -94.632828 4,600 166 233 2432
2019-08-24 15:37:08 GMT 39.262623 -94.634949 4,475 159 228 2624
2019-08-24 15:37:01 GMT 39.267380 -94.638321 4,125 143 217 3072
2019-08-24 15:36:57 GMT 39.272026 -94.643677 3,825 129 211 2624
2019-08-24 15:36:52 GMT 39.274353 -94.647949 3,650 118 204 2688
2019-08-24 15:36:46 GMT 39.276634 -94.653564 3,425 111 199 2624
2019-08-24 15:36:41 GMT 39.278358 -94.659485 3,175 109 192 2944
2019-08-24 15:36:35 GMT 39.280033 -94.665710 2,975 109 188 2432
2019-08-24 15:36:29 GMT 39.281525 -94.671043 2,750 110 179 2048
2019-08-24 15:36:24 GMT 39.283291 -94.677185 2,550 110 162 2112
2019-08-24 15:36:19 GMT 39.285572 -94.685364 2,300 109 157 2816
2019-08-24 15:36:14 GMT 39.285572 -94.685364 2,200 109 155 2688
2019-08-24 15:36:08 GMT 39.287018 -94.690796 1,875 107 152 3392
2019-08-24 15:36:04 GMT 39.287750 -94.694031 1,675 102 152 3904
2019-08-24 15:35:58 GMT 39.289398 -94.709549 875 95 156 2816
2019-08-24 15:35:48 GMT 39.289669 -94.712158 875 96 141 64
2019-08-24 15:35:35 GMT 39.290314 -94.720001 875 96 92 0
2019-08-24 15:35:27 GMT 39.290741 -94.724976 0 95 40
2019-08-24 15:35:14 GMT 39.290821 -94.726013 0 95 6
2019-08-24 15:35:03 GMT 39.290844 -94.726303 0 135 5
2019-08-24 15:34:53 GMT 39.291046 -94.726402 0 188 14
2019-08-24 15:34:42 GMT 39.291672 -94.726318 0 196 12
2019-08-24 15:34:32 GMT 39.292068 -94.725876 0 270 14
2019-08-24 15:34:21 GMT 39.292007 -94.724930 0 278 17
2019-08-24 15:34:11 GMT 39.291904 -94.723686 0 278 28
We lost coverage of the aircraft here for a total of 129 minutes
2019-08-24 13:25:32 GMT 39.293804 -94.711311 0 300 0 0
2019-08-24 13:25:18 GMT 39.293800 -94.711319 0 300 0 0
2019-08-24 13:24:52 GMT 39.293804 -94.711311 0 300 0 0
2019-08-24 13:24:42 GMT 39.293804 -94.711327 0 300 0 0
2019-08-24 13:23:57 GMT 39.293823 -94.711304 0 300 0 0
2019-08-24 13:23:12 GMT 39.293800 -94.711319 0 300 0 0
2019-08-24 13:22:42 GMT 39.293812 -94.711319 0 300 0 0
2019-08-24 13:21:53 GMT 39.293804 -94.711327 0 300 0 0
2019-08-24 13:21:02 GMT 39.293800 -94.711319 0 300 0 0
2019-08-24 13:20:48 GMT 39.293812 -94.711319 0 300 0 0
2019-08-24 13:20:16 GMT 39.293816 -94.711311 0 303 0 0
2019-08-24 13:20:13 GMT 39.293804 -94.711296 0 303 0 0
2019-08-24 13:20:02 GMT 39.293636 -94.710922 0 258 11 0
2019-08-24 13:19:51 GMT 39.294090 -94.710449 0 227 23 0
2019-08-24 13:19:47 GMT 39.294304 -94.709946 0 261 25 0
2019-08-24 13:19:41 GMT 39.294422 -94.709091 0 261 26 0
2019-08-24 13:19:30 GMT 39.294559 -94.707405 0 264 25 0
2019-08-24 13:19:23 GMT 39.294891 -94.706688 0 202 23 0
2019-08-24 13:19:20 GMT 39.295235 -94.706573 0 194 29 0
2019-08-24 13:19:10 GMT 39.296631 -94.706146 0 194 30 0
2019-08-24 13:18:59 GMT 39.297886 -94.705765 0 196 17 0
2019-08-24 13:18:50 GMT 39.298271 -94.705307 0 298 17 0
2019-08-24 13:18:47 GMT 39.298141 -94.705032 0 323 23 0
2019-08-24 13:18:40 GMT 39.297329 -94.704590 0 0 40 0
2019-08-24 13:18:35 GMT 39.296230 -94.704704 0 14 49 0
2019-08-24 13:18:27 GMT 39.294174 -94.705246 0 16 72 0
2019-08-24 13:18:23 GMT 39.292870 -94.705643 0 16 90 0
2019-08-24 13:18:16 GMT 39.289719 -94.706566 850 12 125 -192
2019-08-24 13:18:12 GMT 39.287659 -94.707161 850 13 130 -64
2019-08-24 13:18:02 GMT 39.281105 -94.709167 925 13 140 -896
2019-08-24 13:17:52 GMT 39.274681 -94.711243 1,050 13 142 -1216
2019-08-24 13:17:41 GMT 39.267838 -94.713989 1,675 245 152 192
2019-08-24 13:17:30 GMT 39.261925 -94.718079 1,400 31 140 -896
2019-08-24 13:17:20 GMT 39.255615 -94.722267 1,525 15 152 -768
2019-08-24 13:17:09 GMT 39.247833 -94.721313 1,675 317 162 -256
2019-08-24 13:16:58 GMT 39.243622 -94.712059 1,675 278 161 -192
2019-08-24 13:16:46 GMT 39.245270 -94.702385 1,675 241 151 128
2019-08-24 13:16:37 GMT 39.250008 -94.697327 1,775 195 126 -128
2019-08-24 13:16:24 GMT 39.257221 -94.698730 1,725 136 142 -64
2019-08-24 13:16:14 GMT 39.260925 -94.706985 1,750 99 168 -576
2019-08-24 13:16:03 GMT 39.260605 -94.717613 1,850 69 193 -448
2019-08-24 13:15:53 GMT 39.255615 -94.728897 1,950 44 226 -832
2019-08-24 13:15:49 GMT 39.251961 -94.732788 2,025 21 242 -1280
2019-08-24 13:15:44 GMT 39.247421 -94.735405 2,100 12 249 -704
2019-08-24 13:15:41 GMT 39.244328 -94.736267 2,100 0 265 -384
2019-08-24 13:15:37 GMT 39.240791 -94.736633 2,150 0 265 -384
2019-08-24 13:15:30 GMT 39.232269 -94.735046 2,250 335 280 -1600
2019-08-24 13:15:27 GMT 39.227661 -94.732056 2,350 326 283 -1536
2019-08-24 13:15:20 GMT 39.221146 -94.724358 2,500 303 293 -960
2019-08-24 13:15:13 GMT 39.216751 -94.713615 2,675 287 295 -2304
2019-08-24 13:15:08 GMT 39.214828 -94.695160 3,050 271 287 -3584
2019-08-24 13:15:02 GMT 39.214828 -94.695160 3,275 274 286 -3584
2019-08-24 13:14:57 GMT 39.214233 -94.687698 3,500 279 284 -3008
2019-08-24 13:14:54 GMT 39.213650 -94.682495 3,650 279 285 -2816
2019-08-24 13:14:51 GMT 39.212952 -94.676453 3,825 279 284 -3008
2019-08-24 13:14:47 GMT 39.212311 -94.670326 4,025 274 281 -3200
2019-08-24 13:14:42 GMT 39.213226 -94.653427 4,350 262 279 -2560
2019-08-24 13:14:37 GMT 39.213226 -94.653427 4,450 261 279 -1920
2019-08-24 13:14:34 GMT 39.213776 -94.649483 4,525 259 280 -2048
2019-08-24 13:14:31 GMT 39.214783 -94.643578 4,675 254 282 -2048
2019-08-24 13:14:26 GMT 39.216522 -94.636589 4,775 246 281 -2240
2019-08-24 13:14:21 GMT 39.220093 -94.627693 5,000 234 281 -2240
2019-08-24 13:14:14 GMT 39.225586 -94.618797 5,225 227 282 -2176
2019-08-24 13:14:10 GMT 39.228920 -94.614197 5,350 227 284 -2112
2019-08-24 13:14:06 GMT 39.233250 -94.608337 5,500 227 285 -2176
2019-08-24 13:14:00 GMT 39.242886 -94.595459 5,750 227 289 -2176
2019-08-24 13:13:55 GMT 39.242886 -94.595459 5,875 226 290 -2176
2019-08-24 13:13:49 GMT 39.252892 -94.582214 6,125 226 294 -2240
2019-08-24 13:13:45 GMT 39.254616 -94.579895 6,300 226 299 -2048
2019-08-24 13:13:38 GMT 39.262810 -94.569092 6,475 226 303 -1920
2019-08-24 13:13:34 GMT 39.262810 -94.569092 6,575 226 309 -1728
2019-08-24 13:13:30 GMT 39.266510 -94.564285 6,675 226 308 -1792
2019-08-24 13:13:27 GMT 39.269653 -94.560181 6,775 226 345 -64
2019-08-24 13:13:22 GMT 39.276077 -94.551758 6,775 226 327 64
2019-08-24 13:13:17 GMT 39.279942 -94.546753 6,800 226 340 -576
2019-08-24 13:13:11 GMT 39.287064 -94.537476 6,825 226 346 0
2019-08-24 13:13:08 GMT 39.292046 -94.531006 6,825 226 345 0
2019-08-24 13:13:03 GMT 39.296631 -94.524994 6,825 226 345 0
2019-08-24 13:13:00 GMT 39.299286 -94.521469 6,825 226 343 0
2019-08-24 13:12:57 GMT 39.303497 -94.515915 6,825 226 342 0
2019-08-24 13:12:50 GMT 39.310898 -94.506104 6,825 226 340 0
2019-08-24 13:12:47 GMT 39.314438 -94.501465 6,825 226 339 0
2019-08-24 13:12:39 GMT 39.322536 -94.490723 6,825 226 336 0
2019-08-24 13:12:35 GMT 39.325981 -94.486084 6,825 226 335 0
2019-08-24 13:12:29 GMT 39.333435 -94.476212 6,825 227 333 -64
2019-08-24 13:12:26 GMT 39.337387 -94.470886 6,825 227 331 64
2019-08-24 13:12:18 GMT 39.345566 -94.459969 6,850 227 327 -64
2019-08-24 13:12:15 GMT 39.348186 -94.456482 6,850 226 325 -192
2019-08-24 13:12:08 GMT 39.355545 -94.446594 6,850 227 318 -192
2019-08-24 13:12:04 GMT 39.360336 -94.440125 6,875 227 317 -256
2019-08-24 13:11:57 GMT 39.366249 -94.432251 6,925 227 316 -768
2019-08-24 13:11:53 GMT 39.370789 -94.426117 6,975 227 311 -1216
2019-08-24 13:11:47 GMT 39.376831 -94.418053 7,200 226 313 -1600
2019-08-24 13:11:44 GMT 39.380402 -94.413391 7,250 225 315 -2752
2019-08-24 13:11:37 GMT 39.388081 -94.403564 7,650 225 316 -3648
2019-08-24 13:11:32 GMT 39.391621 -94.398987 7,850 226 316 -3648
2019-08-24 13:11:26 GMT 39.398346 -94.389755 8,225 232 318 -3584
2019-08-24 13:11:22 GMT 39.401276 -94.384979 8,600 237 319 -3648
2019-08-24 13:11:16 GMT 39.406769 -94.372856 8,850 248 321 -3520
2019-08-24 13:11:11 GMT 39.409103 -94.364975 9,100 255 322 -3712
2019-08-24 13:11:05 GMT 39.410980 -94.352493 9,500 267 325 -3904
2019-08-24 13:11:02 GMT 39.411263 -94.346436 9,675 272 326 -3840
2019-08-24 13:10:54 GMT 39.410751 -94.332397 10,100 275 328 -3712
2019-08-24 13:10:50 GMT 39.410286 -94.325012 10,325 275 329 -3776
2019-08-24 13:10:44 GMT 39.409515 -94.311836 10,725 275 332 -3648
2019-08-24 13:10:40 GMT 39.409103 -94.304733 10,950 275 331 -3584
2019-08-24 13:10:32 GMT 39.408283 -94.290222 11,375 274 334 -3712
2019-08-24 13:10:29 GMT 39.407959 -94.283875 11,550 274 334 -3712
2019-08-24 13:10:23 GMT 39.407272 -94.268845 12,000 273 336 -3648
2019-08-24 13:10:19 GMT 39.407043 -94.263649 12,150 273 337 -3712
2019-08-24 13:10:14 GMT 39.406631 -94.251945 12,500 273 338 -3712
2019-08-24 13:10:10 GMT 39.406265 -94.242271 12,775 273 338 -3840
2019-08-24 13:10:02 GMT 39.405762 -94.227348 13,200 273 340 -3712
2019-08-24 13:09:57 GMT 39.405491 -94.218628 13,450 273 340 -3776
2019-08-24 13:09:51 GMT 39.405121 -94.206055 13,800 272 341 -3648
2019-08-24 13:09:48 GMT 39.404984 -94.198929 14,025 272 342 -3584
2019-08-24 13:09:41 GMT 39.404980 -94.185669 14,475 268 342 -3648
2019-08-24 13:09:37 GMT 39.405354 -94.176270 14,675 264 342 -3648
2019-08-24 13:09:28 GMT 39.407501 -94.158264 15,175 257 343 -3648
2019-08-24 13:09:24 GMT 39.408981 -94.150452 15,400 256 343 -3712
2019-08-24 13:09:19 GMT 39.410660 -94.141907 15,650 256 344 -3648
2019-08-24 13:09:15 GMT 39.412628 -94.131935 15,950 256 344 -3712
2019-08-24 13:09:09 GMT 39.414825 -94.120766 16,525 256 345 -3648
2019-08-24 13:09:05 GMT 39.417618 -94.106796 16,675 256 346 -3648
2019-08-24 13:08:59 GMT 39.418854 -94.100586 16,900 256 346 -3712
2019-08-24 13:08:56 GMT 39.419861 -94.095573 17,025 256 346 -3712
2019-08-24 13:08:53 GMT 39.421181 -94.088989 17,200 256 347 -3776
2019-08-24 13:08:46 GMT 39.424072 -94.074738 18,150 256 348 -3776
2019-08-24 13:08:41 GMT 39.426254 -94.063721 17,950 256 347 -3712
2019-08-24 13:08:35 GMT 39.428284 -94.053474 18,250 257 347 -3776
2019-08-24 13:08:30 GMT 39.430351 -94.042786 18,575 256 347 -3776
2019-08-24 13:08:25 GMT 39.432491 -94.031921 18,875 256 348 -3712
2019-08-24 13:08:20 GMT 39.433960 -94.024460 19,325 256 349 -3712
2019-08-24 13:08:17 GMT 39.435936 -94.014587 19,375 256 349 -3712
2019-08-24 13:08:14 GMT 39.439011 -93.998779 20,000 256 350 -3776
2019-08-24 13:08:08 GMT 39.439011 -93.998779 19,850 256 349 -3712
2019-08-24 13:08:04 GMT 39.440872 -93.989502 20,000 256 349 -3712
2019-08-24 13:07:55 GMT 39.445312 -93.966599 21,275 256 349 -3712
2019-08-24 13:07:45 GMT 39.448196 -93.952034 21,150 256 349 -3712
2019-08-24 13:07:42 GMT 39.449249 -93.946716 21,325 256 349 -3776
2019-08-24 13:07:33 GMT 39.452744 -93.928711 23,225 256 349 -3776
2019-08-24 13:07:21 GMT 39.457397 -93.905045 22,475 256 349 -3712
2019-08-24 13:07:11 GMT 39.461636 -93.883423 23,100 256 349 -3648
2019-08-24 13:07:01 GMT 39.465591 -93.862892 23,625 257 352 -3200
2019-08-24 13:06:50 GMT 39.469780 -93.840942 24,150 257 356 -3264
2019-08-24 13:06:40 GMT 39.474060 -93.818344 24,675 257 359 -3136
2019-08-24 13:06:37 GMT 39.474667 -93.815186 24,850 256 363 -3264
2019-08-24 13:06:30 GMT 39.477509 -93.800537 25,250 256 365 -3200
2019-08-24 13:06:27 GMT 39.478859 -93.793762 25,350 256 365 -3200
2019-08-24 13:06:20 GMT 39.482071 -93.777222 25,750 256 369 -3264
2019-08-24 13:06:17 GMT 39.483536 -93.769684 25,925 256 371 -3264
2019-08-24 13:06:07 GMT 39.487335 -93.749863 26,400 257 375 -3200
2019-08-24 13:05:57 GMT 39.491272 -93.729263 26,925 257 381 -3200
2019-08-24 13:05:54 GMT 39.493103 -93.719528 27,100 257 383 -3264
2019-08-24 13:05:47 GMT 39.497757 -93.694153 27,550 257 388 -3136
2019-08-24 13:05:42 GMT 39.497757 -93.694153 27,650 257 390 -3072
2019-08-24 13:05:36 GMT 39.500225 -93.680542 27,875 257 392 -3200
2019-08-24 13:05:30 GMT 39.502533 -93.667938 28,225 257 396 -3200
2019-08-24 13:05:27 GMT 39.504322 -93.658447 28,450 257 398 -3136
2019-08-24 13:05:24 GMT 39.505344 -93.652893 28,550 257 398 -3136
2019-08-24 13:05:17 GMT 39.508606 -93.635681 28,925 257 402 -3200
2019-08-24 13:05:14 GMT 39.509766 -93.629311 29,125 257 406 -3136
2019-08-24 13:05:06 GMT 39.513565 -93.609009 29,500 257 409 -3136
2019-08-24 13:05:03 GMT 39.514565 -93.603516 29,600 257 411 -3072
2019-08-24 13:04:58 GMT 39.516861 -93.591331 29,850 257 414 -3072
2019-08-24 13:04:55 GMT 39.518288 -93.583374 30,025 257 415 -3136
2019-08-24 13:04:52 GMT 39.519424 -93.577362 30,150 257 416 -3072
2019-08-24 13:04:46 GMT 39.522079 -93.563271 30,800 256 426 -2752
2019-08-24 13:04:43 GMT 39.523224 -93.557419 30,500 256 422 -3200
2019-08-24 13:04:40 GMT 39.524990 -93.548340 30,675 256 425 -2688
2019-08-24 13:04:34 GMT 39.527939 -93.533302 30,950 256 427 -2688
2019-08-24 13:04:30 GMT 39.530018 -93.522644 31,125 256 428 -2688
2019-08-24 13:04:22 GMT 39.533371 -93.505249 31,400 257 430 -2816
2019-08-24 13:04:18 GMT 39.535419 -93.494751 31,625 257 431 -2816
2019-08-24 13:04:11 GMT 39.541214 -93.463860 32,400 257 437 -2880
2019-08-24 13:04:06 GMT 39.541214 -93.463860 32,275 257 436 -2816
2019-08-24 13:04:02 GMT 39.542961 -93.454468 32,350 257 436 -2816
2019-08-24 13:03:59 GMT 39.544682 -93.445374 32,450 257 437 -2816
2019-08-24 13:03:56 GMT 39.545849 -93.439270 32,625 257 437 -2752
2019-08-24 13:03:53 GMT 39.547848 -93.428589 32,775 257 437 -2688
2019-08-24 13:03:50 GMT 39.548538 -93.424751 33,200 257 434 -2752
2019-08-24 13:03:46 GMT 39.551193 -93.410599 33,100 257 435 -2752
2019-08-24 13:03:43 GMT 39.552456 -93.403809 33,225 257 434 -2816
2019-08-24 13:03:40 GMT 39.553482 -93.398476 33,300 257 433 -2816
2019-08-24 13:03:36 GMT 39.555450 -93.387909 33,400 257 432 -2816
2019-08-24 13:03:32 GMT 39.558060 -93.374413 33,725 257 429 -2752
2019-08-24 13:03:28 GMT 39.559158 -93.368446 34,050 257 428 -2688
2019-08-24 13:03:25 GMT 39.561069 -93.358276 34,000 257 426 -2752
2019-08-24 13:03:22 GMT 39.562466 -93.350891 34,175 257 423 -2688
2019-08-24 13:03:16 GMT 39.564793 -93.338562 34,350 257 422 -2688
2019-08-24 13:03:11 GMT 39.567215 -93.325630 34,575 257 418 -2688
2019-08-24 13:03:08 GMT 39.568680 -93.317810 34,750 257 416 -2688
2019-08-24 13:03:03 GMT 39.571404 -93.303528 34,975 257 414 -2624
2019-08-24 13:03:00 GMT 39.572250 -93.299004 35,150 257 413 -2624
2019-08-24 13:02:57 GMT 39.573639 -93.291565 35,175 257 410 -2304
2019-08-24 13:02:52 GMT 39.576004 -93.278885 35,375 257 409 -2304
2019-08-24 13:02:49 GMT 39.577194 -93.272736 35,575 257 407 -2304
2019-08-24 13:02:43 GMT 39.580200 -93.256897 35,700 256 406 -1984
2019-08-24 13:02:39 GMT 39.583183 -93.242859 35,850 254 404 -1856
2019-08-24 13:02:36 GMT 39.585415 -93.233643 36,200 250 404 -1856
2019-08-24 13:02:33 GMT 39.585415 -93.233643 36,025 252 403 -1920
2019-08-24 13:02:29 GMT 39.586899 -93.227890 36,100 251 404 -1792
2019-08-24 13:02:26 GMT 39.589966 -93.216965 36,225 249 405 -1856
2019-08-24 13:02:22 GMT 39.592026 -93.210220 36,325 247 406 -1664
2019-08-24 13:02:17 GMT 39.595963 -93.198631 36,425 246 407 -1664
2019-08-24 13:02:14 GMT 39.600452 -93.186523 36,600 242 411 -1664
2019-08-24 13:02:06 GMT 39.604549 -93.176575 36,725 242 411 -1664
2019-08-24 13:02:03 GMT 39.608181 -93.168396 36,850 240 413 -1600
2019-08-24 13:01:56 GMT 39.614697 -93.154968 37,000 237 416 -1664
2019-08-24 13:01:51 GMT 39.621262 -93.142639 37,175 234 419 -1664
2019-08-24 13:01:46 GMT 39.626541 -93.133675 37,300 232 421 -1728
2019-08-24 13:01:40 GMT 39.634388 -93.121399 37,475 229 424 -1728
2019-08-24 13:01:36 GMT 39.639648 -93.113831 37,600 227 426 -1728
2019-08-24 13:01:29 GMT 39.649796 -93.100471 38,000 224 430 -1600
2019-08-24 13:01:25 GMT 39.655476 -93.093628 37,900 222 433 -1536
2019-08-24 13:01:21 GMT 39.660271 -93.088135 37,975 221 435 -1088
2019-08-24 13:01:16 GMT 39.668045 -93.079773 38,000 219 438 -320
2019-08-24 13:01:13 GMT 39.672794 -93.074829 38,025 219 440 -192
2019-08-24 13:01:09 GMT 39.680557 -93.066734 38,000 219 442 -64
2019-08-24 13:01:06 GMT 39.683922 -93.063293 38,000 219 443 0
2019-08-24 13:01:03 GMT 39.690170 -93.056770 38,000 219 444 -128
2019-08-24 13:00:58 GMT 39.696579 -93.050140 38,000 219 445 0
2019-08-24 13:00:55 GMT 39.701889 -93.044617 38,000 219 444 -64
2019-08-24 13:00:52 GMT 39.705872 -93.040466 38,000 219 444 -64
2019-08-24 13:00:48 GMT 39.713608 -93.032463 38,025 219 444 64
2019-08-24 13:00:43 GMT 39.722260 -93.023453 38,000 219 444 0
2019-08-24 13:00:36 GMT 39.732010 -93.013245 38,025 219 443 -64
2019-08-24 13:00:32 GMT 39.738712 -93.006287 38,025 219 443 0
2019-08-24 13:00:29 GMT 39.743683 -93.001122 38,025 219 443 64
2019-08-24 13:00:25 GMT 39.749451 -92.995087 38,000 219 443 0
2019-08-24 13:00:21 GMT 39.756031 -92.988281 38,000 219 443 64
2019-08-24 13:00:15 GMT 39.765152 -92.978790 38,000 219 443 -64
2019-08-24 13:00:10 GMT 39.773952 -92.969604 38,000 219 443 -64
2019-08-24 13:00:07 GMT 39.777771 -92.965637 38,025 219 443 0
2019-08-24 13:00:02 GMT 39.787537 -92.955444 38,025 219 443 -64
2019-08-24 12:59:59 GMT 39.791656 -92.951141 38,025 219 443 0
2019-08-24 12:59:55 GMT 39.797230 -92.945312 38,000 219 442 64
2019-08-24 12:59:50 GMT 39.812027 -92.929764 38,000 219 442 -128
2019-08-24 12:59:47 GMT 39.812027 -92.929764 38,000 219 442 -128
2019-08-24 12:59:38 GMT 39.825581 -92.915649 38,000 219 441 -64
2019-08-24 12:59:35 GMT 39.830521 -92.910538 38,000 219 441 0
2019-08-24 12:59:31 GMT 39.840363 -92.900215 38,000 219 439 -64
2019-08-24 12:59:28 GMT 39.847786 -92.892395 38,000 220 440 64
2019-08-24 12:59:24 GMT 39.856201 -92.883614 38,000 220 440 -64
2019-08-24 12:59:19 GMT 39.859516 -92.880127 38,000 219 439 0
2019-08-24 12:59:13 GMT 39.864395 -92.875015 38,000 219 439 0
2019-08-24 12:59:08 GMT 39.872955 -92.866058 38,000 219 439 -64
2019-08-24 12:59:05 GMT 39.876881 -92.861877 38,000 219 438 0
2019-08-24 12:59:01 GMT 39.884468 -92.853943 38,000 219 438 0
2019-08-24 12:58:55 GMT 39.893265 -92.844727 38,000 219 437 64
2019-08-24 12:58:52 GMT 39.897217 -92.840561 38,000 219 437 64
2019-08-24 12:58:47 GMT 39.906162 -92.831177 38,000 220 436 0
2019-08-24 12:58:42 GMT 39.914635 -92.822266 38,000 220 436 64
2019-08-24 12:58:39 GMT 39.917149 -92.819641 38,000 219 435 64
2019-08-24 12:58:36 GMT 39.922943 -92.813538 38,000 219 435 64
2019-08-24 12:58:31 GMT 39.931252 -92.804825 38,000 220 435 -64
2019-08-24 12:58:28 GMT 39.935955 -92.799889 38,000 220 435 -64
2019-08-24 12:58:24 GMT 39.940937 -92.794647 38,000 219 434 64
2019-08-24 12:58:18 GMT 39.952377 -92.782654 38,000 219 434 128
2019-08-24 12:58:13 GMT 39.959244 -92.775452 38,000 219 432 -64
2019-08-24 12:58:10 GMT 39.963745 -92.770676 38,000 219 433 0
2019-08-24 12:58:06 GMT 39.969177 -92.764954 38,000 219 433 -64
2019-08-24 12:57:59 GMT 39.979946 -92.753700 38,000 220 431 -64
2019-08-24 12:57:56 GMT 39.986893 -92.746399 38,000 219 431 -64
2019-08-24 12:57:49 GMT 39.995911 -92.736938 38,000 220 430 64
2019-08-24 12:57:42 GMT 40.007950 -92.724304 38,000 220 428 0
2019-08-24 12:57:39 GMT 40.012115 -92.719864 38,000 220 427 0
2019-08-24 12:57:33 GMT 40.020584 -92.710938 38,000 220 427 64
2019-08-24 12:57:30 GMT 40.025055 -92.706261 38,000 220 427 64
2019-08-24 12:57:27 GMT 40.028915 -92.702209 38,000 220 427 64
2019-08-24 12:57:20 GMT 40.041348 -92.689095 38,000 219 426 -64
2019-08-24 12:57:16 GMT 40.047493 -92.682663 38,000 219 426 -64
2019-08-24 12:57:11 GMT 40.055779 -92.673988 38,000 219 425 -128
2019-08-24 12:57:08 GMT 40.060341 -92.669113 38,000 219 425 -64
2019-08-24 12:57:04 GMT 40.064163 -92.665100 38,025 219 425 -64
2019-08-24 12:56:59 GMT 40.073364 -92.655457 38,000 219 423 64
2019-08-24 12:56:56 GMT 40.075790 -92.652893 38,025 219 423 -64
2019-08-24 12:56:48 GMT 40.090988 -92.636902 38,000 219 421 64
2019-08-24 12:56:45 GMT 40.093735 -92.634033 38,000 220 420 64
2019-08-24 12:56:41 GMT 40.105637 -92.621490 38,025 220 417 -64
2019-08-24 12:56:38 GMT 40.105637 -92.621490 38,025 221 414 0
2019-08-24 12:56:35 GMT 40.108200 -92.618774 38,025 224 411 0
2019-08-24 12:56:30 GMT 40.116806 -92.609497 38,025 222 413 0
2019-08-24 12:56:26 GMT 40.122894 -92.602600 38,000 226 408 320
2019-08-24 12:56:21 GMT 40.128590 -92.595711 38,000 224 410 192
2019-08-24 12:56:15 GMT 40.140976 -92.579468 37,975 227 406 128
2019-08-24 12:56:10 GMT 40.143391 -92.576042 38,000 231 400 0
2019-08-24 12:56:04 GMT 40.151726 -92.563622 38,000 232 399 384
2019-08-24 12:55:57 GMT 40.158600 -92.552612 38,000 232 398 512
2019-08-24 12:55:54 GMT 40.162571 -92.546021 37,875 232 399 1600
2019-08-24 12:55:50 GMT 40.166611 -92.539429 37,825 232 399 1664
2019-08-24 12:55:44 GMT 40.174767 -92.525986 37,575 232 402 1024
2019-08-24 12:55:41 GMT 40.177563 -92.521423 37,600 232 402 1088
2019-08-24 12:55:37 GMT 40.181705 -92.514557 37,525 232 402 1024
2019-08-24 12:55:34 GMT 40.186935 -92.505981 37,450 232 403 1024
2019-08-24 12:55:31 GMT 40.189499 -92.501831 37,425 232 403 1024
2019-08-24 12:55:27 GMT 40.193436 -92.495361 37,375 232 404 896
2019-08-24 12:55:24 GMT 40.197487 -92.488655 37,275 232 404 1024
2019-08-24 12:55:20 GMT 40.205521 -92.475525 37,275 232 404 1024
2019-08-24 12:55:14 GMT 40.213440 -92.462524 37,125 232 404 832
2019-08-24 12:55:11 GMT 40.213440 -92.462524 37,075 232 403 832
2019-08-24 12:55:07 GMT 40.218567 -92.454163 37,050 232 403 960
2019-08-24 12:55:01 GMT 40.225185 -92.443275 36,975 232 404 960
2019-08-24 12:54:58 GMT 40.226898 -92.440430 36,925 232 403 1088
2019-08-24 12:54:55 GMT 40.231567 -92.432800 36,875 232 404 1152
2019-08-24 12:54:50 GMT 40.237610 -92.422852 36,775 232 404 1152
2019-08-24 12:54:46 GMT 40.241547 -92.416382 36,700 232 404 1024
2019-08-24 12:54:42 GMT 40.246365 -92.408501 36,650 232 404 896
2019-08-24 12:54:38 GMT 40.254745 -92.394768 36,550 232 404 896
2019-08-24 12:54:29 GMT 40.262283 -92.382324 36,450 232 404 704
2019-08-24 12:54:25 GMT 40.265682 -92.376793 36,425 232 403 704
2019-08-24 12:54:18 GMT 40.274368 -92.362488 36,350 232 402 704
2019-08-24 12:54:13 GMT 40.281464 -92.350883 36,275 232 402 1024
2019-08-24 12:54:08 GMT 40.285721 -92.343811 36,225 232 402 1024
2019-08-24 12:54:04 GMT 40.291260 -92.334717 36,125 232 401 1216
2019-08-24 12:54:00 GMT 40.295105 -92.328476 36,025 232 402 1024
2019-08-24 12:53:57 GMT 40.299248 -92.321609 35,825 232 402 1216
2019-08-24 12:53:53 GMT 40.301807 -92.317429 35,950 232 402 1088
2019-08-24 12:53:50 GMT 40.307583 -92.307938 35,725 232 402 1536
2019-08-24 12:53:44 GMT 40.314423 -92.296692 35,750 232 402 1408
2019-08-24 12:53:38 GMT 40.320988 -92.285843 35,325 232 406 1920
2019-08-24 12:53:35 GMT 40.323441 -92.281860 35,325 232 406 1920
2019-08-24 12:53:32 GMT 40.326344 -92.277039 35,450 232 404 1856
2019-08-24 12:53:29 GMT 40.331635 -92.268433 35,325 232 405 1984
2019-08-24 12:53:26 GMT 40.335697 -92.261749 35,225 232 407 1920
2019-08-24 12:53:23 GMT 40.338181 -92.257690 35,150 232 407 1856
2019-08-24 12:53:16 GMT 40.350735 -92.236969 34,900 232 410 1792
2019-08-24 12:53:12 GMT 40.350735 -92.236969 34,850 232 410 1792
2019-08-24 12:53:04 GMT 40.360794 -92.220337 34,625 232 412 1344
2019-08-24 12:52:55 GMT 40.371689 -92.202332 34,450 232 412 1216
2019-08-24 12:52:52 GMT 40.375362 -92.196266 34,375 232 412 1152
2019-08-24 12:52:48 GMT 40.380478 -92.187866 34,300 232 412 1088
2019-08-24 12:52:42 GMT 40.386841 -92.177307 34,225 232 412 1216
2019-08-24 12:52:34 GMT 40.396683 -92.161064 33,975 232 412 1152
2019-08-24 12:52:31 GMT 40.399986 -92.155571 34,000 232 412 1152
2019-08-24 12:52:27 GMT 40.405434 -92.146576 33,925 232 412 960
2019-08-24 12:52:22 GMT 40.410507 -92.138245 33,850 232 411 960
2019-08-24 12:52:16 GMT 40.418701 -92.124794 33,750 232 409 768
2019-08-24 12:52:10 GMT 40.425034 -92.114304 33,700 232 409 832
2019-08-24 12:52:02 GMT 40.434669 -92.098450 33,550 232 407 1344
2019-08-24 12:51:58 GMT 40.437740 -92.093391 33,475 232 407 1472
2019-08-24 12:51:54 GMT 40.443375 -92.084152 33,375 232 407 1472
2019-08-24 12:51:49 GMT 40.449940 -92.073296 33,225 232 408 1536
2019-08-24 12:51:44 GMT 40.455963 -92.063416 33,100 232 409 1664
2019-08-24 12:51:40 GMT 40.459946 -92.056824 33,025 232 409 1728
2019-08-24 12:51:37 GMT 40.462692 -92.052383 32,950 232 410 1664
2019-08-24 12:51:32 GMT 40.469421 -92.041321 32,800 232 411 1216
2019-08-24 12:51:29 GMT 40.473076 -92.035278 32,650 232 411 1280
2019-08-24 12:51:26 GMT 40.475555 -92.031128 32,525 232 410 1280
2019-08-24 12:51:22 GMT 40.481079 -92.021980 32,600 232 411 1280
2019-08-24 12:51:18 GMT 40.484985 -92.015503 32,350 232 410 1344
2019-08-24 12:51:15 GMT 40.488392 -92.009872 32,475 232 410 1344
2019-08-24 12:51:10 GMT 40.496395 -91.996574 32,300 232 410 1408
2019-08-24 12:51:07 GMT 40.499130 -91.992126 32,275 232 410 1472
2019-08-24 12:51:01 GMT 40.506912 -91.979187 32,100 232 410 1600
2019-08-24 12:50:57 GMT 40.510780 -91.972794 32,025 232 411 1600
2019-08-24 12:50:54 GMT 40.513046 -91.969055 31,975 232 411 1600
2019-08-24 12:50:50 GMT 40.519485 -91.958252 31,675 232 411 1536
2019-08-24 12:50:46 GMT 40.524235 -91.950447 31,750 232 412 1344
2019-08-24 12:50:38 GMT 40.532089 -91.937317 31,600 232 411 1792
2019-08-24 12:50:35 GMT 40.535614 -91.931396 31,475 232 412 2048
2019-08-24 12:50:32 GMT 40.539185 -91.925537 31,475 232 412 2048
2019-08-24 12:50:28 GMT 40.545776 -91.914490 31,225 233 414 1600
2019-08-24 12:50:25 GMT 40.548721 -91.909500 31,150 233 414 1600
2019-08-24 12:50:16 GMT 40.558777 -91.892639 30,925 233 414 1728
2019-08-24 12:50:13 GMT 40.563263 -91.885132 30,825 232 415 1920
2019-08-24 12:50:06 GMT 40.572136 -91.870232 30,600 232 416 1728
2019-08-24 12:50:03 GMT 40.574890 -91.865662 30,575 232 416 1664
2019-08-24 12:50:00 GMT 40.578327 -91.859871 30,500 232 416 1024
2019-08-24 12:49:57 GMT 40.585602 -91.847717 30,400 232 416 1024
2019-08-24 12:49:53 GMT 40.585602 -91.847717 30,400 232 416 1088
2019-08-24 12:49:50 GMT 40.588943 -91.842163 30,350 233 416 1152
2019-08-24 12:49:45 GMT 40.594620 -91.832581 29,925 233 415 2240
2019-08-24 12:49:41 GMT 40.601326 -91.821297 30,075 233 416 2432
2019-08-24 12:49:34 GMT 40.608635 -91.808937 29,850 233 416 2560
2019-08-24 12:49:28 GMT 40.614361 -91.799324 29,450 232 421 2240
2019-08-24 12:49:25 GMT 40.619980 -91.789856 29,450 232 421 2240
2019-08-24 12:49:22 GMT 40.622131 -91.786255 29,400 232 422 2176
2019-08-24 12:49:17 GMT 40.629257 -91.774353 29,125 232 422 1856
2019-08-24 12:49:13 GMT 40.634720 -91.765259 29,100 232 423 1664
2019-08-24 12:49:08 GMT 40.640488 -91.755554 28,950 233 424 1792
2019-08-24 12:49:05 GMT 40.642525 -91.752129 28,925 233 422 1600
2019-08-24 12:49:02 GMT 40.647263 -91.744202 28,825 232 423 1664
2019-08-24 12:48:58 GMT 40.652435 -91.735535 28,500 232 423 1856
2019-08-24 12:48:52 GMT 40.659348 -91.723999 28,550 232 423 1856
2019-08-24 12:48:46 GMT 40.665241 -91.714119 28,375 233 423 1856
2019-08-24 12:48:41 GMT 40.672119 -91.702515 28,000 232 423 1216
2019-08-24 12:48:34 GMT 40.680038 -91.689087 27,875 233 419 2240
2019-08-24 12:48:30 GMT 40.685261 -91.680412 27,975 233 422 960
2019-08-24 12:48:26 GMT 40.690289 -91.671860 27,900 233 422 960
2019-08-24 12:48:21 GMT 40.697113 -91.660339 27,825 233 420 1472
2019-08-24 12:48:09 GMT 40.710205 -91.638123 27,450 233 421 2944
2019-08-24 12:47:58 GMT 40.723106 -91.616364 26,950 232 427 2176
2019-08-24 12:47:49 GMT 40.735767 -91.595078 26,600 232 426 1600
2019-08-24 12:47:38 GMT 40.748337 -91.574097 26,375 232 426 1792
2019-08-24 12:47:27 GMT 40.761703 -91.551636 26,100 232 425 1536
2019-08-24 12:47:19 GMT 40.772141 -91.534119 25,900 232 423 1600
2019-08-24 12:47:16 GMT 40.774521 -91.530029 25,825 232 423 1664
2019-08-24 12:47:06 GMT 40.787907 -91.507500 25,475 232 423 2496
2019-08-24 12:46:54 GMT 40.801117 -91.485291 25,050 233 426 2112
2019-08-24 12:46:47 GMT 40.809227 -91.471542 24,775 233 423 896
2019-08-24 12:46:44 GMT 40.813835 -91.463806 24,800 233 421 896
2019-08-24 12:46:35 GMT 40.825848 -91.443451 24,675 232 420 832
2019-08-24 12:46:22 GMT 40.839935 -91.419556 24,450 233 414 1920
2019-08-24 12:46:15 GMT 40.848358 -91.405090 24,150 233 415 2880
2019-08-24 12:46:12 GMT 40.852615 -91.397888 23,750 233 418 1536
2019-08-24 12:46:06 GMT 40.859364 -91.386459 23,800 233 418 1984
2019-08-24 12:46:01 GMT 40.865662 -91.375793 23,650 233 418 1536
2019-08-24 12:45:50 GMT 40.878250 -91.354614 23,375 232 415 1600
2019-08-24 12:45:38 GMT 40.891479 -91.332336 23,125 233 411 1408
2019-08-24 12:45:29 GMT 40.903263 -91.312370 22,850 232 408 1920
2019-08-24 12:45:17 GMT 40.927734 -91.270935 22,175 233 406 1984
2019-08-24 12:45:07 GMT 40.927734 -91.270935 22,150 233 406 1920
2019-08-24 12:44:56 GMT 40.939957 -91.250183 21,925 233 402 1024
2019-08-24 12:44:46 GMT 40.953030 -91.227974 21,650 233 397 2560
2019-08-24 12:44:34 GMT 40.966644 -91.204651 21,100 233 400 2496
2019-08-24 12:44:25 GMT 40.976303 -91.188210 20,800 233 400 2176
2019-08-24 12:44:21 GMT 40.988205 -91.167969 20,375 233 399 1856
2019-08-24 12:44:14 GMT 40.988205 -91.167969 20,450 233 399 1856
2019-08-24 12:44:10 GMT 40.992828 -91.160057 19,975 233 392 1856
2019-08-24 12:44:04 GMT 41.000656 -91.146851 20,150 233 395 1472
2019-08-24 12:43:58 GMT 41.005913 -91.137894 19,875 233 391 2112
2019-08-24 12:43:53 GMT 41.013035 -91.125725 19,850 233 391 2176
2019-08-24 12:43:46 GMT 41.020294 -91.113243 19,600 233 390 2496
2019-08-24 12:43:42 GMT 41.024597 -91.105835 19,450 233 390 2624
2019-08-24 12:43:36 GMT 41.030491 -91.095825 19,225 233 392 2496
2019-08-24 12:43:31 GMT 41.036133 -91.086182 19,025 233 391 2368
2019-08-24 12:43:24 GMT 41.044037 -91.072731 18,675 233 390 2048
2019-08-24 12:43:21 GMT 41.047810 -91.066299 18,675 233 390 2048
2019-08-24 12:43:10 GMT 41.059494 -91.046387 18,350 233 387 1984
2019-08-24 12:43:00 GMT 41.071224 -91.026161 17,925 233 385 2624
2019-08-24 12:42:52 GMT 41.078979 -91.012939 17,650 233 384 2432
2019-08-24 12:42:49 GMT 41.082352 -91.007118 17,525 233 384 2176
2019-08-24 12:42:43 GMT 41.088028 -90.997505 17,250 233 380 1408
2019-08-24 12:42:39 GMT 41.093994 -90.987305 17,250 233 380 1408
2019-08-24 12:42:31 GMT 41.102226 -90.973167 17,100 233 377 1600
2019-08-24 12:42:27 GMT 41.106537 -90.965698 16,925 233 374 2048
2019-08-24 12:42:24 GMT 41.109818 -90.960052 16,825 233 373 2368
2019-08-24 12:42:17 GMT 41.117355 -90.947006 16,500 233 373 2816
2019-08-24 12:42:14 GMT 41.120338 -90.941956 16,400 233 373 2496
2019-08-24 12:42:06 GMT 41.128948 -90.927162 16,100 233 371 2112
2019-08-24 12:41:55 GMT 41.139515 -90.908745 15,650 233 370 3328
2019-08-24 12:41:44 GMT 41.150829 -90.889267 15,150 233 373 2624
2019-08-24 12:41:34 GMT 41.162464 -90.869415 14,675 233 370 2496
2019-08-24 12:41:26 GMT 41.169434 -90.857361 14,425 233 369 2560
2019-08-24 12:41:22 GMT 41.173126 -90.851128 14,275 233 369 2624
2019-08-24 12:41:15 GMT 41.180511 -90.838379 13,975 233 368 2368
2019-08-24 12:41:11 GMT 41.184532 -90.831467 13,650 233 363 2176
2019-08-24 12:41:06 GMT 41.191143 -90.820107 13,625 233 363 2176
2019-08-24 12:41:01 GMT 41.195610 -90.812302 13,475 233 361 2304
2019-08-24 12:40:54 GMT 41.201710 -90.801750 13,225 233 360 2752
2019-08-24 12:40:50 GMT 41.206833 -90.793076 13,025 233 359 2816
2019-08-24 12:40:44 GMT 41.213837 -90.781006 12,725 233 358 2624
2019-08-24 12:40:40 GMT 41.216904 -90.775818 12,475 233 357 2624
2019-08-24 12:40:32 GMT 41.224182 -90.763306 12,300 233 356 2560
2019-08-24 12:40:28 GMT 41.228989 -90.755066 12,100 233 355 2496
2019-08-24 12:40:24 GMT 41.233318 -90.747635 11,925 233 354 2752
2019-08-24 12:40:19 GMT 41.238907 -90.738022 11,375 233 349 2176
2019-08-24 12:40:13 GMT 41.246750 -90.724548 11,375 233 349 2176
2019-08-24 12:40:09 GMT 41.252403 -90.714920 11,225 233 347 1664
2019-08-24 12:40:00 GMT 41.256920 -90.707184 10,900 233 334 1536
2019-08-24 12:39:56 GMT 41.260971 -90.700256 11,000 233 338 1664
2019-08-24 12:39:53 GMT 41.263809 -90.695259 10,925 233 332 1472
2019-08-24 12:39:50 GMT 41.266937 -90.689880 10,850 233 332 1536
2019-08-24 12:39:47 GMT 41.279251 -90.668701 10,725 233 325 960
2019-08-24 12:39:37 GMT 41.279251 -90.668701 10,625 233 314 832
2019-08-24 12:39:26 GMT 41.288391 -90.652939 10,350 233 301 2816
2019-08-24 12:39:15 GMT 41.297653 -90.636963 9,800 233 299 3008
2019-08-24 12:39:04 GMT 41.313263 -90.610168 8,925 233 293 3136
2019-08-24 12:38:52 GMT 41.316135 -90.605125 8,750 233 292 3264
2019-08-24 12:38:42 GMT 41.324753 -90.590210 8,200 233 290 3008
2019-08-24 12:38:33 GMT 41.332809 -90.576477 7,800 233 284 2624
2019-08-24 12:38:25 GMT 41.338341 -90.566978 7,050 232 281 3904
2019-08-24 12:38:21 GMT 41.341599 -90.561401 7,200 232 280 3968
2019-08-24 12:38:08 GMT 41.351898 -90.544006 6,425 233 281 4032

Making use of Plane Finder data

You are free to use the raw flight data, aircraft information and images provided in this report for your own purposes provided the data is correctly attributed to Plane Finder. We ask that you please credit Plane Finder and link to planefinder.net in close proximity to the content.

Optionally one of the following logos (no smaller then 150x24px) can be used and must link to planefinder.net

Embedding the Plane Finder map

You are welcome to embed the Plane Finder playback map on your website to offer visitors a more interactive experience. We suggest using the following HTML code:

<iframe src="//planefinder.net/data/report/AA5875-N908FJ-7700-squawk-2019-08-24/map" width="800" height="600" seamless="seamless"></iframe>

Where our data comes from

Plane Finder has a global network of data feeds and antenna radars that receive data broadcast directly from aircraft. The primary technologies used are ADS-B and MLAT. We also show feeds from the FAA and a FLARM glider feed.

Click here to find out more about the Plane Finder network.

How we collect our data